Wetterdaten: Donnerstag, 06.08.2015
Datum Zeit Temp. Aussen +5cm Feuchte Auss BlattFeu 1 Luftdruck Regen Sonnenschein Regendauer Solar Windben
06.08.2015 00:00 20,8 C 18,3 C 68 % 0 lf 1012,9 hPa 0,0 l/m 0 min 0 min 0 W/m 8,4 km/h (2 Bft)
06.08.2015 00:02 20,7 C 18,3 C 68 % 0 lf 1012,9 hPa 0,0 l/m 0 min 0 min 0 W/m 8,4 km/h (2 Bft)
06.08.2015 00:05 20,7 C 17,8 C 68 % 0 lf 1012,9 hPa 0,0 l/m 0 min 0 min 0 W/m 10,5 km/h (2 Bft)
06.08.2015 00:08 20,7 C 18,3 C 68 % 0 lf 1012,9 hPa 0,0 l/m 0 min 0 min 0 W/m 10,5 km/h (2 Bft)
06.08.2015 00:10 20,6 C 18,3 C 68 % 0 lf 1012,8 hPa 0,0 l/m 0 min 0 min 0 W/m 8,4 km/h (2 Bft)
06.08.2015 00:12 20,6 C 17,8 C 68 % 0 lf 1012,9 hPa 0,0 l/m 0 min 0 min 0 W/m 8,4 km/h (2 Bft)
06.08.2015 00:14 20,6 C 17,8 C 68 % 0 lf 1012,9 hPa 0,0 l/m 0 min 0 min 0 W/m 6,3 km/h (2 Bft)
06.08.2015 00:16 20,6 C 17,8 C 69 % 0 lf 1012,8 hPa 0,0 l/m 0 min 0 min 0 W/m 8,4 km/h (2 Bft)
06.08.2015 00:18 20,5 C 17,8 C 69 % 0 lf 1012,8 hPa 0,0 l/m 0 min 0 min 0 W/m 6,3 km/h (2 Bft)
06.08.2015 00:20 20,5 C 17,8 C 69 % 0 lf 1012,8 hPa 0,0 l/m 0 min 0 min 0 W/m 10,5 km/h (2 Bft)
06.08.2015 00:22 20,4 C 17,8 C 69 % 0 lf 1012,8 hPa 0,0 l/m 0 min 0 min 0 W/m 10,5 km/h (2 Bft)
06.08.2015 00:24 20,4 C 17,8 C 69 % 0 lf 1012,8 hPa 0,0 l/m 0 min 0 min 0 W/m 8,4 km/h (2 Bft)
06.08.2015 00:26 20,4 C 17,8 C 69 % 0 lf 1012,8 hPa 0,0 l/m 0 min 0 min 0 W/m 10,5 km/h (2 Bft)
06.08.2015 00:28 20,3 C 17,8 C 69 % 0 lf 1012,8 hPa 0,0 l/m 0 min 0 min 0 W/m 8,4 km/h (2 Bft)
06.08.2015 00:30 20,3 C 17,8 C 70 % 0 lf 1012,8 hPa 0,0 l/m 0 min 0 min 0 W/m 8,4 km/h (2 Bft)
06.08.2015 00:32 20,3 C 17,8 C 70 % 0 lf 1012,8 hPa 0,0 l/m 0 min 0 min 0 W/m 10,5 km/h (2 Bft)
06.08.2015 00:34 20,2 C 17,8 C 70 % 0 lf 1012,7 hPa 0,0 l/m 0 min 0 min 0 W/m 10,5 km/h (2 Bft)
06.08.2015 00:36 20,2 C 17,8 C 70 % 0 lf 1012,7 hPa 0,0 l/m 0 min 0 min 0 W/m 10,5 km/h (2 Bft)
06.08.2015 00:38 20,2 C 17,8 C 70 % 0 lf 1012,7 hPa 0,0 l/m 0 min 0 min 0 W/m 10,5 km/h (2 Bft)
06.08.2015 00:40 20,1 C 17,8 C 70 % 0 lf 1012,7 hPa 0,0 l/m 0 min 0 min 0 W/m 8,4 km/h (2 Bft)
06.08.2015 00:42 20,1 C 17,8 C 70 % 0 lf 1012,7 hPa 0,0 l/m 0 min 0 min 0 W/m 10,5 km/h (2 Bft)
06.08.2015 00:44 20,1 C 17,2 C 70 % 0 lf 1012,7 hPa 0,0 l/m 0 min 0 min 0 W/m 12,6 km/h (3 Bft)
06.08.2015 00:46 20,0 C 17,2 C 70 % 0 lf 1012,8 hPa 0,0 l/m 0 min 0 min 0 W/m 8,4 km/h (2 Bft)
06.08.2015 00:48 19,9 C 17,2 C 70 % 0 lf 1012,8 hPa 0,0 l/m 0 min 0 min 0 W/m 10,5 km/h (2 Bft)
06.08.2015 00:50 19,9 C 17,8 C 70 % 0 lf 1012,7 hPa 0,0 l/m 0 min 0 min 0 W/m 10,5 km/h (2 Bft)
06.08.2015 00:52 19,9 C 17,8 C 70 % 0 lf 1012,7 hPa 0,0 l/m 0 min 0 min 0 W/m 10,5 km/h (2 Bft)
06.08.2015 00:54 19,9 C 17,2 C 71 % 0 lf 1012,7 hPa 0,0 l/m 0 min 0 min 0 W/m 10,5 km/h (2 Bft)
06.08.2015 00:56 19,8 C 17,2 C 71 % 0 lf 1012,8 hPa 0,0 l/m 0 min 0 min 0 W/m 16,7 km/h (3 Bft)
06.08.2015 00:58 19,8 C 17,2 C 71 % 0 lf 1012,7 hPa 0,0 l/m 0 min 0 min 0 W/m 10,5 km/h (2 Bft)
06.08.2015 01:00 19,8 C 17,2 C 71 % 0 lf 1012,8 hPa 0,0 l/m 0 min 0 min 0 W/m 10,5 km/h (2 Bft)
06.08.2015 01:02 19,7 C 17,2 C 71 % 0 lf 1012,8 hPa 0,0 l/m 0 min 0 min 0 W/m 10,5 km/h (2 Bft)
06.08.2015 01:04 19,7 C 17,2 C 71 % 0 lf 1012,8 hPa 0,0 l/m 0 min 0 min 0 W/m 10,5 km/h (2 Bft)
06.08.2015 01:06 19,7 C 17,2 C 71 % 0 lf 1012,8 hPa 0,0 l/m 0 min 0 min 0 W/m 10,5 km/h (2 Bft)
06.08.2015 01:08 19,7 C 17,2 C 71 % 0 lf 1012,7 hPa 0,0 l/m 0 min 0 min 0 W/m 12,6 km/h (3 Bft)
06.08.2015 01:10 19,7 C 17,2 C 71 % 0 lf 1012,7 hPa 0,0 l/m 0 min 0 min 0 W/m 10,5 km/h (2 Bft)
06.08.2015 01:12 19,6 C 17,2 C 71 % 0 lf 1012,7 hPa 0,0 l/m 0 min 0 min 0 W/m 10,5 km/h (2 Bft)
06.08.2015 01:14 19,6 C 17,2 C 71 % 0 lf 1012,6 hPa 0,0 l/m 0 min 0 min 0 W/m 14,6 km/h (3 Bft)
06.08.2015 01:16 19,6 C 17,2 C 71 % 0 lf 1012,6 hPa 0,0 l/m 0 min 0 min 0 W/m 12,6 km/h (3 Bft)
06.08.2015 01:18 19,6 C 17,2 C 71 % 0 lf 1012,6 hPa 0,0 l/m 0 min 0 min 0 W/m 12,6 km/h (3 Bft)
06.08.2015 01:20 19,6 C 17,2 C 71 % 0 lf 1012,7 hPa 0,0 l/m 0 min 0 min 0 W/m 10,5 km/h (2 Bft)
06.08.2015 01:22 19,5 C 17,2 C 71 % 0 lf 1012,7 hPa 0,0 l/m 0 min 0 min 0 W/m 8,4 km/h (2 Bft)
06.08.2015 01:24 19,5 C 17,2 C 72 % 0 lf 1012,8 hPa 0,0 l/m 0 min 0 min 0 W/m 10,5 km/h (2 Bft)
06.08.2015 01:26 19,5 C 17,2 C 72 % 0 lf 1012,8 hPa 0,0 l/m 0 min 0 min 0 W/m 10,5 km/h (2 Bft)
06.08.2015 01:28 19,4 C 17,2 C 72 % 0 lf 1012,8 hPa 0,0 l/m 0 min 0 min 0 W/m 8,4 km/h (2 Bft)
06.08.2015 01:30 19,4 C 17,2 C 72 % 0 lf 1012,8 hPa 0,0 l/m 0 min 0 min 0 W/m 8,4 km/h (2 Bft)
06.08.2015 01:32 19,4 C 17,2 C 72 % 0 lf 1012,7 hPa 0,0 l/m 0 min 0 min 0 W/m 8,4 km/h (2 Bft)
06.08.2015 01:34 19,4 C 17,2 C 72 % 0 lf 1012,7 hPa 0,0 l/m 0 min 0 min 0 W/m 10,5 km/h (2 Bft)
06.08.2015 01:36 19,3 C 17,2 C 72 % 0 lf 1012,6 hPa 0,0 l/m 0 min 0 min 0 W/m 10,5 km/h (2 Bft)
06.08.2015 01:38 19,3 C 17,2 C 72 % 0 lf 1012,6 hPa 0,0 l/m 0 min 0 min 0 W/m 10,5 km/h (2 Bft)
06.08.2015 01:40 19,3 C 17,2 C 73 % 0 lf 1012,6 hPa 0,0 l/m 0 min 0 min 0 W/m 12,6 km/h (3 Bft)
06.08.2015 01:42 19,3 C 17,2 C 73 % 0 lf 1012,5 hPa 0,0 l/m 0 min 0 min 0 W/m 14,6 km/h (3 Bft)
06.08.2015 01:44 19,2 C 17,2 C 73 % 0 lf 1012,5 hPa 0,0 l/m 0 min 0 min 0 W/m 18,8 km/h (3 Bft)
06.08.2015 01:46 19,2 C 17,2 C 73 % 0 lf 1012,5 hPa 0,0 l/m 0 min 0 min 0 W/m 14,6 km/h (3 Bft)
06.08.2015 01:48 19,2 C 17,2 C 73 % 0 lf 1012,6 hPa 0,0 l/m 0 min 0 min 0 W/m 8,4 km/h (2 Bft)
06.08.2015 01:50 19,2 C 17,2 C 73 % 0 lf 1012,5 hPa 0,0 l/m 0 min 0 min 0 W/m 12,6 km/h (3 Bft)
06.08.2015 01:52 19,2 C 17,2 C 73 % 0 lf 1012,5 hPa 0,0 l/m 0 min 0 min 0 W/m 10,5 km/h (2 Bft)
06.08.2015 01:54 19,1 C 17,2 C 73 % 0 lf 1012,5 hPa 0,0 l/m 0 min 0 min 0 W/m 10,5 km/h (2 Bft)
06.08.2015 01:56 19,1 C 17,2 C 73 % 0 lf 1012,5 hPa 0,0 l/m 0 min 0 min 0 W/m 12,6 km/h (3 Bft)
06.08.2015 01:58 19,1 C 17,2 C 73 % 0 lf 1012,5 hPa 0,0 l/m 0 min 0 min 0 W/m 10,5 km/h (2 Bft)
06.08.2015 02:00 19,1 C 17,2 C 73 % 0 lf 1012,4 hPa 0,0 l/m 0 min 0 min 0 W/m 16,7 km/h (3 Bft)
06.08.2015 02:02 19,1 C 17,2 C 73 % 0 lf 1012,4 hPa 0,0 l/m 0 min 0 min 0 W/m 16,7 km/h (3 Bft)
06.08.2015 02:04 19,1 C 17,2 C 73 % 0 lf 1012,4 hPa 0,0 l/m 0 min 0 min 0 W/m 14,6 km/h (3 Bft)
06.08.2015 02:06 19,1 C 17,2 C 74 % 0 lf 1012,4 hPa 0,0 l/m 0 min 0 min 0 W/m 10,5 km/h (2 Bft)
06.08.2015 02:08 19,1 C 17,2 C 74 % 0 lf 1012,4 hPa 0,0 l/m 0 min 0 min 0 W/m 16,7 km/h (3 Bft)
06.08.2015 02:10 19,0 C 17,2 C 74 % 0 lf 1012,4 hPa 0,0 l/m 0 min 0 min 0 W/m 14,6 km/h (3 Bft)
06.08.2015 02:12 19,0 C 17,2 C 74 % 0 lf 1012,4 hPa 0,0 l/m 0 min 0 min 0 W/m 12,6 km/h (3 Bft)
06.08.2015 02:14 19,0 C 17,2 C 74 % 0 lf 1012,4 hPa 0,0 l/m 0 min 0 min 0 W/m 12,6 km/h (3 Bft)
06.08.2015 02:16 18,9 C 17,2 C 74 % 0 lf 1012,5 hPa 0,0 l/m 0 min 0 min 0 W/m 12,6 km/h (3 Bft)
06.08.2015 02:18 18,9 C 17,2 C 74 % 0 lf 1012,4 hPa 0,0 l/m 0 min 0 min 0 W/m 12,6 km/h (3 Bft)
06.08.2015 02:20 18,9 C 17,2 C 74 % 0 lf 1012,5 hPa 0,0 l/m 0 min 0 min 0 W/m 12,6 km/h (3 Bft)
06.08.2015 02:22 18,9 C 17,2 C 74 % 0 lf 1012,5 hPa 0,0 l/m 0 min 0 min 0 W/m 10,5 km/h (2 Bft)
06.08.2015 02:24 18,9 C 17,2 C 75 % 0 lf 1012,5 hPa 0,0 l/m 0 min 0 min 0 W/m 10,5 km/h (2 Bft)
06.08.2015 02:26 18,9 C 17,2 C 75 % 0 lf 1012,5 hPa 0,0 l/m 0 min 0 min 0 W/m 10,5 km/h (2 Bft)
06.08.2015 02:28 18,9 C 16,7 C 75 % 0 lf 1012,5 hPa 0,0 l/m 0 min 0 min 0 W/m 10,5 km/h (2 Bft)
06.08.2015 02:30 18,9 C 16,7 C 75 % 0 lf 1012,5 hPa 0,0 l/m 0 min 0 min 0 W/m 12,6 km/h (3 Bft)
06.08.2015 02:32 18,9 C 16,7 C 75 % 0 lf 1012,4 hPa 0,0 l/m 0 min 0 min 0 W/m 10,5 km/h (2 Bft)
06.08.2015 02:34 18,9 C 16,7 C 75 % 0 lf 1012,4 hPa 0,0 l/m 0 min 0 min 0 W/m 10,5 km/h (2 Bft)
06.08.2015 02:36 18,9 C 16,7 C 75 % 0 lf 1012,4 hPa 0,0 l/m 0 min 0 min 0 W/m 10,5 km/h (2 Bft)
06.08.2015 02:38 18,9 C 17,2 C 75 % 0 lf 1012,4 hPa 0,0 l/m 0 min 0 min 0 W/m 20,9 km/h (4 Bft)
06.08.2015 02:40 18,8 C 17,2 C 75 % 0 lf 1012,4 hPa 0,0 l/m 0 min 0 min 0 W/m 10,5 km/h (2 Bft)
06.08.2015 02:42 18,8 C 16,7 C 76 % 0 lf 1012,4 hPa 0,0 l/m 0 min 0 min 0 W/m 14,6 km/h (3 Bft)
06.08.2015 02:44 18,8 C 16,7 C 76 % 0 lf 1012,4 hPa 0,0 l/m 0 min 0 min 0 W/m 10,5 km/h (2 Bft)
06.08.2015 02:46 18,8 C 16,7 C 76 % 0 lf 1012,4 hPa 0,0 l/m 0 min 0 min 0 W/m 10,5 km/h (2 Bft)
06.08.2015 02:48 18,8 C 16,7 C 76 % 0 lf 1012,4 hPa 0,0 l/m 0 min 0 min 0 W/m 10,5 km/h (2 Bft)
06.08.2015 02:50 18,8 C 16,7 C 76 % 0 lf 1012,4 hPa 0,0 l/m 0 min 0 min 0 W/m 8,4 km/h (2 Bft)
06.08.2015 02:52 18,8 C 16,7 C 76 % 0 lf 1012,5 hPa 0,0 l/m 0 min 0 min 0 W/m 10,5 km/h (2 Bft)
06.08.2015 02:54 18,8 C 16,7 C 76 % 0 lf 1012,5 hPa 0,0 l/m 0 min 0 min 0 W/m 10,5 km/h (2 Bft)
06.08.2015 02:56 18,8 C 16,7 C 77 % 0 lf 1012,5 hPa 0,0 l/m 0 min 0 min 0 W/m 12,6 km/h (3 Bft)
06.08.2015 02:58 18,8 C 16,7 C 77 % 0 lf 1012,5 hPa 0,0 l/m 0 min 0 min 0 W/m 14,6 km/h (3 Bft)
06.08.2015 03:00 18,7 C 16,7 C 77 % 0 lf 1012,5 hPa 0,0 l/m 0 min 0 min 0 W/m 12,6 km/h (3 Bft)
06.08.2015 03:02 18,7 C 16,7 C 77 % 0 lf 1012,5 hPa 0,0 l/m 0 min 0 min 0 W/m 14,6 km/h (3 Bft)
06.08.2015 03:04 18,7 C 16,7 C 77 % 0 lf 1012,5 hPa 0,0 l/m 0 min 0 min 0 W/m 8,4 km/h (2 Bft)
06.08.2015 03:06 18,7 C 16,7 C 77 % 0 lf 1012,5 hPa 0,0 l/m 0 min 0 min 0 W/m 12,6 km/h (3 Bft)
06.08.2015 03:08 18,7 C 16,7 C 78 % 0 lf 1012,5 hPa 0,0 l/m 0 min 0 min 0 W/m 16,7 km/h (3 Bft)
06.08.2015 03:10 18,7 C 16,7 C 78 % 0 lf 1012,4 hPa 0,0 l/m 0 min 0 min 0 W/m 10,5 km/h (2 Bft)
06.08.2015 03:12 18,7 C 16,7 C 78 % 0 lf 1012,5 hPa 0,0 l/m 0 min 0 min 0 W/m 10,5 km/h (2 Bft)
06.08.2015 03:14 18,7 C 16,7 C 78 % 0 lf 1012,5 hPa 0,0 l/m 0 min 0 min 0 W/m 8,4 km/h (2 Bft)
06.08.2015 03:16 18,6 C 16,7 C 78 % 0 lf 1012,5 hPa 0,0 l/m 0 min 0 min 0 W/m 10,5 km/h (2 Bft)
06.08.2015 03:18 18,6 C 16,7 C 78 % 0 lf 1012,5 hPa 0,0 l/m 0 min 0 min 0 W/m 12,6 km/h (3 Bft)
06.08.2015 03:20 18,6 C 16,7 C 78 % 0 lf 1012,5 hPa 0,0 l/m 0 min 0 min 0 W/m 8,4 km/h (2 Bft)
06.08.2015 03:22 18,6 C 16,7 C 78 % 0 lf 1012,5 hPa 0,0 l/m 0 min 0 min 0 W/m 10,5 km/h (2 Bft)
06.08.2015 03:24 18,6 C 16,7 C 78 % 0 lf 1012,5 hPa 0,0 l/m 0 min 0 min 0 W/m 10,5 km/h (2 Bft)
06.08.2015 03:26 18,6 C 16,7 C 78 % 0 lf 1012,5 hPa 0,0 l/m 0 min 0 min 0 W/m 8,4 km/h (2 Bft)
06.08.2015 03:28 18,6 C 16,7 C 78 % 0 lf 1012,5 hPa 0,0 l/m 0 min 0 min 0 W/m 8,4 km/h (2 Bft)
06.08.2015 03:30 18,6 C 16,7 C 78 % 0 lf 1012,5 hPa 0,0 l/m 0 min 0 min 0 W/m 10,5 km/h (2 Bft)
06.08.2015 03:32 18,6 C 16,7 C 78 % 0 lf 1012,5 hPa 0,0 l/m 0 min 0 min 0 W/m 10,5 km/h (2 Bft)
06.08.2015 03:34 18,5 C 16,7 C 79 % 0 lf 1012,5 hPa 0,0 l/m 0 min 0 min 0 W/m 8,4 km/h (2 Bft)
06.08.2015 03:36 18,5 C 16,7 C 79 % 0 lf 1012,5 hPa 0,0 l/m 0 min 0 min 0 W/m 10,5 km/h (2 Bft)
06.08.2015 03:38 18,5 C 16,7 C 79 % 0 lf 1012,5 hPa 0,0 l/m 0 min 0 min 0 W/m 10,5 km/h (2 Bft)
06.08.2015 03:40 18,4 C 16,1 C 79 % 0 lf 1012,5 hPa 0,0 l/m 0 min 0 min 0 W/m 10,5 km/h (2 Bft)
06.08.2015 03:42 18,4 C 16,1 C 79 % 0 lf 1012,5 hPa 0,0 l/m 0 min 0 min 0 W/m 10,5 km/h (2 Bft)
06.08.2015 03:44 18,4 C 16,1 C 79 % 0 lf 1012,5 hPa 0,0 l/m 0 min 0 min 0 W/m 12,6 km/h (3 Bft)
06.08.2015 03:46 18,4 C 16,1 C 79 % 0 lf 1012,5 hPa 0,0 l/m 0 min 0 min 0 W/m 10,5 km/h (2 Bft)
06.08.2015 03:48 18,4 C 16,1 C 79 % 0 lf 1012,5 hPa 0,0 l/m 0 min 0 min 0 W/m 12,6 km/h (3 Bft)
06.08.2015 03:50 18,3 C 16,1 C 79 % 0 lf 1012,5 hPa 0,0 l/m 0 min 0 min 0 W/m 8,4 km/h (2 Bft)
06.08.2015 03:52 18,3 C 16,1 C 79 % 0 lf 1012,5 hPa 0,0 l/m 0 min 0 min 0 W/m 10,5 km/h (2 Bft)
06.08.2015 03:54 18,3 C 16,1 C 79 % 0 lf 1012,5 hPa 0,0 l/m 0 min 0 min 0 W/m 12,6 km/h (3 Bft)
06.08.2015 03:56 18,3 C 16,1 C 79 % 0 lf 1012,5 hPa 0,0 l/m 0 min 0 min 0 W/m 10,5 km/h (2 Bft)
06.08.2015 03:58 18,2 C 16,1 C 79 % 0 lf 1012,5 hPa 0,0 l/m 0 min 0 min 0 W/m 10,5 km/h (2 Bft)
06.08.2015 04:00 18,2 C 16,1 C 80 % 0 lf 1012,5 hPa 0,0 l/m 0 min 0 min 0 W/m 8,4 km/h (2 Bft)
06.08.2015 04:05 18,2 C 16,1 C 80 % 0 lf 1012,5 hPa 0,0 l/m 0 min 0 min 0 W/m 8,4 km/h (2 Bft)
06.08.2015 04:06 18,2 C 16,1 C 80 % 0 lf 1012,5 hPa 0,0 l/m 0 min 0 min 0 W/m 6,3 km/h (2 Bft)
06.08.2015 04:08 18,2 C 16,1 C 80 % 0 lf 1012,5 hPa 0,0 l/m 0 min 0 min 0 W/m 8,4 km/h (2 Bft)
06.08.2015 04:10 18,1 C 16,1 C 80 % 0 lf 1012,5 hPa 0,0 l/m 0 min 0 min 0 W/m 6,3 km/h (2 Bft)
06.08.2015 04:12 18,1 C 16,1 C 80 % 0 lf 1012,5 hPa 0,0 l/m 0 min 0 min 0 W/m 10,5 km/h (2 Bft)
06.08.2015 04:14 18,1 C 16,1 C 80 % 0 lf 1012,5 hPa 0,0 l/m 0 min 0 min 0 W/m 8,4 km/h (2 Bft)
06.08.2015 04:16 18,1 C 16,1 C 80 % 0 lf 1012,5 hPa 0,0 l/m 0 min 0 min 0 W/m 6,3 km/h (2 Bft)
06.08.2015 04:18 18,1 C 16,1 C 80 % 0 lf 1012,5 hPa 0,0 l/m 0 min 0 min 0 W/m 8,4 km/h (2 Bft)
06.08.2015 04:20 18,0 C 16,1 C 81 % 0 lf 1012,5 hPa 0,0 l/m 0 min 0 min 0 W/m 6,3 km/h (2 Bft)
06.08.2015 04:22 18,0 C 16,1 C 81 % 0 lf 1012,5 hPa 0,0 l/m 0 min 0 min 0 W/m 14,6 km/h (3 Bft)
06.08.2015 04:24 17,9 C 16,1 C 81 % 0 lf 1012,5 hPa 0,0 l/m 0 min 0 min 0 W/m 10,5 km/h (2 Bft)
06.08.2015 04:26 17,9 C 16,1 C 81 % 0 lf 1012,4 hPa 0,0 l/m 0 min 0 min 0 W/m 8,4 km/h (2 Bft)
06.08.2015 04:28 17,9 C 16,1 C 81 % 0 lf 1012,4 hPa 0,0 l/m 0 min 0 min 0 W/m 6,3 km/h (2 Bft)
06.08.2015 04:30 17,9 C 15,6 C 81 % 0 lf 1012,4 hPa 0,0 l/m 0 min 0 min 0 W/m 10,5 km/h (2 Bft)
06.08.2015 04:32 17,9 C 15,6 C 81 % 0 lf 1012,4 hPa 0,0 l/m 0 min 0 min 0 W/m 8,4 km/h (2 Bft)
06.08.2015 04:34 17,8 C 16,1 C 81 % 0 lf 1012,4 hPa 0,0 l/m 0 min 0 min 0 W/m 8,4 km/h (2 Bft)
06.08.2015 04:36 17,8 C 15,6 C 81 % 0 lf 1012,5 hPa 0,0 l/m 0 min 0 min 0 W/m 6,3 km/h (2 Bft)
06.08.2015 04:38 17,8 C 15,6 C 81 % 0 lf 1012,5 hPa 0,0 l/m 0 min 0 min 0 W/m 6,3 km/h (2 Bft)
06.08.2015 04:40 17,8 C 15,6 C 81 % 0 lf 1012,5 hPa 0,0 l/m 0 min 0 min 0 W/m 8,4 km/h (2 Bft)
06.08.2015 04:42 17,8 C 15,6 C 81 % 0 lf 1012,5 hPa 0,0 l/m 0 min 0 min 0 W/m 10,5 km/h (2 Bft)
06.08.2015 04:44 17,7 C 15,6 C 82 % 0 lf 1012,4 hPa 0,0 l/m 0 min 0 min 0 W/m 8,4 km/h (2 Bft)
06.08.2015 04:46 17,7 C 15,6 C 82 % 0 lf 1012,5 hPa 0,0 l/m 0 min 0 min 0 W/m 8,4 km/h (2 Bft)
06.08.2015 04:48 17,7 C 15,6 C 82 % 0 lf 1012,4 hPa 0,0 l/m 0 min 0 min 0 W/m 8,4 km/h (2 Bft)
06.08.2015 04:50 17,7 C 15,6 C 82 % 0 lf 1012,5 hPa 0,0 l/m 0 min 0 min 0 W/m 8,4 km/h (2 Bft)
06.08.2015 04:52 17,7 C 15,6 C 82 % 0 lf 1012,5 hPa 0,0 l/m 0 min 0 min 0 W/m 8,4 km/h (2 Bft)
06.08.2015 04:54 17,6 C 15,6 C 82 % 0 lf 1012,5 hPa 0,0 l/m 0 min 0 min 0 W/m 8,4 km/h (2 Bft)
06.08.2015 04:56 17,6 C 15,6 C 82 % 0 lf 1012,5 hPa 0,0 l/m 0 min 0 min 0 W/m 6,3 km/h (2 Bft)
06.08.2015 04:58 17,6 C 15,6 C 82 % 0 lf 1012,5 hPa 0,0 l/m 0 min 0 min 0 W/m 6,3 km/h (2 Bft)
06.08.2015 05:00 17,6 C 15,6 C 82 % 0 lf 1012,4 hPa 0,0 l/m 0 min 0 min 0 W/m 6,3 km/h (2 Bft)
06.08.2015 05:02 17,6 C 15,6 C 82 % 0 lf 1012,4 hPa 0,0 l/m 0 min 0 min 0 W/m 6,3 km/h (2 Bft)
06.08.2015 05:04 17,6 C 15,6 C 82 % 0 lf 1012,5 hPa 0,0 l/m 0 min 0 min 0 W/m 6,3 km/h (2 Bft)
06.08.2015 05:06 17,5 C 15,6 C 82 % 0 lf 1012,5 hPa 0,0 l/m 0 min 0 min 0 W/m 4,2 km/h (1 Bft)
06.08.2015 05:08 17,5 C 15,0 C 82 % 0 lf 1012,5 hPa 0,0 l/m 0 min 0 min 0 W/m 8,4 km/h (2 Bft)
06.08.2015 05:10 17,4 C 15,0 C 82 % 0 lf 1012,5 hPa 0,0 l/m 0 min 0 min 0 W/m 4,2 km/h (1 Bft)
06.08.2015 05:12 17,4 C 15,0 C 82 % 0 lf 1012,5 hPa 0,0 l/m 0 min 0 min 0 W/m 6,3 km/h (2 Bft)
06.08.2015 05:14 17,4 C 15,0 C 82 % 0 lf 1012,5 hPa 0,0 l/m 0 min 0 min 0 W/m 4,2 km/h (1 Bft)
06.08.2015 05:16 17,4 C 15,0 C 82 % 0 lf 1012,5 hPa 0,0 l/m 0 min 0 min 0 W/m 6,3 km/h (2 Bft)
06.08.2015 05:18 17,4 C 15,0 C 83 % 0 lf 1012,5 hPa 0,0 l/m 0 min 0 min 0 W/m 4,2 km/h (1 Bft)
06.08.2015 05:20 17,4 C 15,0 C 83 % 0 lf 1012,5 hPa 0,0 l/m 0 min 0 min 0 W/m 6,3 km/h (2 Bft)
06.08.2015 05:22 17,3 C 15,0 C 83 % 0 lf 1012,5 hPa 0,0 l/m 0 min 0 min 0 W/m 6,3 km/h (2 Bft)
06.08.2015 05:24 17,3 C 15,0 C 83 % 0 lf 1012,5 hPa 0,0 l/m 0 min 0 min 0 W/m 4,2 km/h (1 Bft)
06.08.2015 05:26 17,3 C 15,0 C 83 % 0 lf 1012,5 hPa 0,0 l/m 0 min 0 min 0 W/m 6,3 km/h (2 Bft)
06.08.2015 05:28 17,3 C 15,0 C 83 % 0 lf 1012,5 hPa 0,0 l/m 0 min 0 min 0 W/m 8,4 km/h (2 Bft)
06.08.2015 05:30 17,2 C 15,0 C 83 % 0 lf 1012,5 hPa 0,0 l/m 0 min 0 min 0 W/m 6,3 km/h (2 Bft)
06.08.2015 05:32 17,2 C 15,0 C 83 % 0 lf 1012,5 hPa 0,0 l/m 0 min 0 min 0 W/m 6,3 km/h (2 Bft)
06.08.2015 05:34 17,2 C 15,0 C 83 % 0 lf 1012,5 hPa 0,0 l/m 0 min 0 min 0 W/m 8,4 km/h (2 Bft)
06.08.2015 05:36 17,2 C 15,0 C 83 % 0 lf 1012,5 hPa 0,0 l/m 0 min 0 min 0 W/m 6,3 km/h (2 Bft)
06.08.2015 05:38 17,1 C 15,0 C 83 % 0 lf 1012,5 hPa 0,0 l/m 0 min 0 min 0 W/m 6,3 km/h (2 Bft)
06.08.2015 05:40 17,1 C 15,0 C 83 % 0 lf 1012,5 hPa 0,0 l/m 0 min 0 min 0 W/m 4,2 km/h (1 Bft)
06.08.2015 05:42 17,1 C 15,0 C 84 % 0 lf 1012,5 hPa 0,0 l/m 0 min 0 min 0 W/m 4,2 km/h (1 Bft)
06.08.2015 05:44 17,1 C 15,0 C 84 % 0 lf 1012,5 hPa 0,0 l/m 0 min 0 min 0 W/m 6,3 km/h (2 Bft)
06.08.2015 05:46 17,1 C 15,0 C 84 % 0 lf 1012,5 hPa 0,0 l/m 0 min 0 min 0 W/m 6,3 km/h (2 Bft)
06.08.2015 05:48 17,1 C 15,0 C 84 % 0 lf 1012,4 hPa 0,0 l/m 0 min 0 min 0 W/m 6,3 km/h (2 Bft)
06.08.2015 05:50 17,0 C 15,0 C 84 % 0 lf 1012,5 hPa 0,0 l/m 0 min 0 min 0 W/m 6,3 km/h (2 Bft)
06.08.2015 05:52 17,0 C 15,0 C 84 % 0 lf 1012,5 hPa 0,0 l/m 0 min 0 min 0 W/m 6,3 km/h (2 Bft)
06.08.2015 05:54 17,0 C 15,0 C 84 % 0 lf 1012,5 hPa 0,0 l/m 0 min 0 min 2 W/m 4,2 km/h (1 Bft)
06.08.2015 05:56 16,9 C 15,0 C 84 % 0 lf 1012,5 hPa 0,0 l/m 0 min 0 min 5 W/m 8,4 km/h (2 Bft)
06.08.2015 05:58 16,9 C 15,0 C 84 % 0 lf 1012,5 hPa 0,0 l/m 0 min 0 min 5 W/m 8,4 km/h (2 Bft)
06.08.2015 06:00 16,9 C 15,0 C 84 % 0 lf 1012,5 hPa 0,0 l/m 0 min 0 min 5 W/m 6,3 km/h (2 Bft)
06.08.2015 06:02 16,9 C 15,0 C 84 % 0 lf 1012,4 hPa 0,0 l/m 0 min 0 min 6 W/m 8,4 km/h (2 Bft)
06.08.2015 06:05 16,9 C 15,0 C 84 % 0 lf 1012,4 hPa 0,0 l/m 0 min 0 min 7 W/m 10,5 km/h (2 Bft)
06.08.2015 06:08 16,8 C 15,0 C 84 % 0 lf 1012,4 hPa 0,0 l/m 0 min 0 min 7 W/m 10,5 km/h (2 Bft)
06.08.2015 06:10 16,8 C 15,0 C 84 % 0 lf 1012,5 hPa 0,0 l/m 0 min 0 min 8 W/m 6,3 km/h (2 Bft)
06.08.2015 06:12 16,8 C 15,0 C 84 % 0 lf 1012,5 hPa 0,0 l/m 0 min 0 min 10 W/m 10,5 km/h (2 Bft)
06.08.2015 06:14 16,8 C 15,0 C 84 % 0 lf 1012,5 hPa 0,0 l/m 0 min 0 min 11 W/m 6,3 km/h (2 Bft)
06.08.2015 06:16 16,8 C 15,0 C 84 % 0 lf 1012,5 hPa 0,0 l/m 0 min 0 min 12 W/m 10,5 km/h (2 Bft)
06.08.2015 06:18 16,8 C 15,0 C 84 % 0 lf 1012,4 hPa 0,0 l/m 0 min 0 min 12 W/m 6,3 km/h (2 Bft)
06.08.2015 06:20 16,8 C 15,0 C 84 % 0 lf 1012,4 hPa 0,0 l/m 0 min 0 min 13 W/m 6,3 km/h (2 Bft)
06.08.2015 06:22 16,8 C 15,0 C 84 % 0 lf 1012,5 hPa 0,0 l/m 0 min 0 min 14 W/m 8,4 km/h (2 Bft)
06.08.2015 06:24 16,8 C 15,0 C 84 % 0 lf 1012,4 hPa 0,0 l/m 0 min 0 min 14 W/m 10,5 km/h (2 Bft)
06.08.2015 06:26 16,8 C 15,6 C 84 % 0 lf 1012,5 hPa 0,0 l/m 0 min 0 min 14 W/m 8,4 km/h (2 Bft)
06.08.2015 06:28 16,8 C 15,6 C 84 % 0 lf 1012,4 hPa 0,0 l/m 0 min 0 min 16 W/m 8,4 km/h (2 Bft)
06.08.2015 06:30 16,8 C 15,6 C 84 % 0 lf 1012,4 hPa 0,0 l/m 0 min 0 min 18 W/m 10,5 km/h (2 Bft)
06.08.2015 06:32 16,8 C 15,6 C 84 % 0 lf 1012,4 hPa 0,0 l/m 0 min 0 min 20 W/m 8,4 km/h (2 Bft)
06.08.2015 06:34 16,8 C 15,6 C 84 % 0 lf 1012,4 hPa 0,0 l/m 0 min 0 min 24 W/m 8,4 km/h (2 Bft)
06.08.2015 06:36 16,8 C 15,6 C 84 % 0 lf 1012,4 hPa 0,0 l/m 0 min 0 min 25 W/m 8,4 km/h (2 Bft)
06.08.2015 06:38 16,8 C 15,6 C 84 % 0 lf 1012,4 hPa 0,0 l/m 2 min 0 min 32 W/m 6,3 km/h (2 Bft)
06.08.2015 06:40 16,8 C 15,6 C 84 % 0 lf 1012,4 hPa 0,0 l/m 2 min 0 min 35 W/m 8,4 km/h (2 Bft)
06.08.2015 06:42 16,8 C 15,6 C 84 % 0 lf 1012,4 hPa 0,0 l/m 0 min 0 min 36 W/m 6,3 km/h (2 Bft)
06.08.2015 06:44 16,9 C 15,6 C 84 % 0 lf 1012,5 hPa 0,0 l/m 0 min 0 min 38 W/m 8,4 km/h (2 Bft)
06.08.2015 06:46 16,9 C 15,6 C 84 % 0 lf 1012,4 hPa 0,0 l/m 0 min 0 min 40 W/m 8,4 km/h (2 Bft)
06.08.2015 06:48 16,9 C 15,6 C 84 % 0 lf 1012,5 hPa 0,0 l/m 2 min 0 min 50 W/m 10,5 km/h (2 Bft)
06.08.2015 06:50 16,9 C 15,6 C 84 % 0 lf 1012,4 hPa 0,0 l/m 2 min 0 min 59 W/m 8,4 km/h (2 Bft)
06.08.2015 06:52 16,9 C 15,6 C 85 % 0 lf 1012,4 hPa 0,0 l/m 2 min 0 min 61 W/m 8,4 km/h (2 Bft)
06.08.2015 06:54 16,9 C 15,6 C 84 % 0 lf 1012,4 hPa 0,0 l/m 2 min 0 min 69 W/m 6,3 km/h (2 Bft)
06.08.2015 06:56 16,9 C 15,6 C 85 % 0 lf 1012,4 hPa 0,0 l/m 2 min 0 min 67 W/m 8,4 km/h (2 Bft)
06.08.2015 06:58 16,9 C 15,6 C 85 % 0 lf 1012,4 hPa 0,0 l/m 2 min 0 min 71 W/m 8,4 km/h (2 Bft)
06.08.2015 07:00 16,9 C 15,6 C 85 % 0 lf 1012,4 hPa 0,0 l/m 2 min 0 min 76 W/m 8,4 km/h (2 Bft)
06.08.2015 07:02 16,9 C 16,1 C 85 % 0 lf 1012,4 hPa 0,0 l/m 2 min 0 min 73 W/m 10,5 km/h (2 Bft)
06.08.2015 07:04 17,0 C 16,1 C 85 % 0 lf 1012,5 hPa 0,0 l/m 2 min 0 min 89 W/m 8,4 km/h (2 Bft)
06.08.2015 07:06 17,0 C 16,1 C 85 % 0 lf 1012,5 hPa 0,0 l/m 2 min 0 min 84 W/m 10,5 km/h (2 Bft)
06.08.2015 07:08 17,0 C 16,1 C 85 % 0 lf 1012,5 hPa 0,0 l/m 2 min 0 min 95 W/m 8,4 km/h (2 Bft)
06.08.2015 07:10 17,1 C 16,1 C 85 % 0 lf 1012,5 hPa 0,0 l/m 2 min 0 min 98 W/m 8,4 km/h (2 Bft)
06.08.2015 07:12 17,1 C 16,1 C 85 % 0 lf 1012,5 hPa 0,0 l/m 2 min 0 min 85 W/m 12,6 km/h (3 Bft)
06.08.2015 07:14 17,1 C 16,1 C 85 % 0 lf 1012,5 hPa 0,0 l/m 2 min 0 min 98 W/m 10,5 km/h (2 Bft)
06.08.2015 07:16 17,1 C 16,1 C 84 % 0 lf 1012,5 hPa 0,0 l/m 2 min 0 min 107 W/m 8,4 km/h (2 Bft)
06.08.2015 07:18 17,2 C 16,1 C 84 % 0 lf 1012,5 hPa 0,0 l/m 2 min 0 min 112 W/m 10,5 km/h (2 Bft)
06.08.2015 07:20 17,2 C 16,1 C 85 % 0 lf 1012,5 hPa 0,0 l/m 2 min 0 min 89 W/m 12,6 km/h (3 Bft)
06.08.2015 07:22 17,2 C 16,1 C 84 % 0 lf 1012,5 hPa 0,0 l/m 0 min 0 min 78 W/m 10,5 km/h (2 Bft)
06.08.2015 07:24 17,3 C 16,1 C 84 % 0 lf 1012,5 hPa 0,0 l/m 0 min 0 min 43 W/m 12,6 km/h (3 Bft)
06.08.2015 07:26 17,3 C 16,1 C 84 % 0 lf 1012,5 hPa 0,0 l/m 0 min 0 min 50 W/m 12,6 km/h (3 Bft)
06.08.2015 07:28 17,3 C 16,1 C 84 % 0 lf 1012,5 hPa 0,0 l/m 0 min 0 min 39 W/m 12,6 km/h (3 Bft)
06.08.2015 07:30 17,4 C 16,1 C 84 % 0 lf 1012,5 hPa 0,0 l/m 0 min 0 min 72 W/m 10,5 km/h (2 Bft)
06.08.2015 07:32 17,4 C 16,1 C 84 % 0 lf 1012,4 hPa 0,0 l/m 2 min 0 min 103 W/m 12,6 km/h (3 Bft)
06.08.2015 07:34 17,4 C 16,1 C 84 % 0 lf 1012,5 hPa 0,0 l/m 2 min 0 min 139 W/m 8,4 km/h (2 Bft)
06.08.2015 07:36 17,5 C 16,7 C 84 % 0 lf 1012,5 hPa 0,0 l/m 2 min 0 min 155 W/m 6,3 km/h (2 Bft)
06.08.2015 07:38 17,5 C 16,7 C 84 % 0 lf 1012,6 hPa 0,0 l/m 2 min 0 min 155 W/m 10,5 km/h (2 Bft)
06.08.2015 07:40 17,6 C 16,7 C 84 % 0 lf 1012,5 hPa 0,0 l/m 2 min 0 min 177 W/m 8,4 km/h (2 Bft)
06.08.2015 07:42 17,6 C 16,7 C 84 % 0 lf 1012,5 hPa 0,0 l/m 2 min 0 min 169 W/m 8,4 km/h (2 Bft)
06.08.2015 07:44 17,6 C 16,7 C 84 % 0 lf 1012,5 hPa 0,0 l/m 2 min 0 min 181 W/m 6,3 km/h (2 Bft)
06.08.2015 07:46 17,7 C 16,7 C 84 % 0 lf 1012,5 hPa 0,0 l/m 2 min 0 min 194 W/m 8,4 km/h (2 Bft)
06.08.2015 07:48 17,7 C 16,7 C 84 % 0 lf 1012,5 hPa 0,0 l/m 2 min 0 min 150 W/m 12,6 km/h (3 Bft)
06.08.2015 07:50 17,7 C 16,7 C 84 % 0 lf 1012,5 hPa 0,0 l/m 2 min 0 min 161 W/m 10,5 km/h (2 Bft)
06.08.2015 07:52 17,8 C 16,7 C 84 % 0 lf 1012,5 hPa 0,0 l/m 2 min 0 min 211 W/m 10,5 km/h (2 Bft)
06.08.2015 07:54 17,8 C 17,2 C 84 % 0 lf 1012,5 hPa 0,0 l/m 2 min 0 min 217 W/m 12,6 km/h (3 Bft)
06.08.2015 07:56 17,9 C 17,2 C 84 % 0 lf 1012,5 hPa 0,0 l/m 2 min 0 min 221 W/m 14,6 km/h (3 Bft)
06.08.2015 07:58 17,9 C 17,2 C 84 % 0 lf 1012,5 hPa 0,0 l/m 2 min 0 min 228 W/m 8,4 km/h (2 Bft)
06.08.2015 08:00 18,0 C 17,2 C 84 % 0 lf 1012,5 hPa 0,0 l/m 2 min 0 min 233 W/m 10,5 km/h (2 Bft)
06.08.2015 08:02 18,1 C 17,2 C 84 % 0 lf 1012,5 hPa 0,0 l/m 2 min 0 min 238 W/m 10,5 km/h (2 Bft)
06.08.2015 08:04 18,1 C 17,2 C 84 % 0 lf 1012,5 hPa 0,0 l/m 2 min 0 min 243 W/m 10,5 km/h (2 Bft)
06.08.2015 08:06 18,2 C 17,2 C 84 % 0 lf 1012,5 hPa 0,0 l/m 2 min 0 min 250 W/m 12,6 km/h (3 Bft)
06.08.2015 08:08 18,3 C 17,8 C 83 % 0 lf 1012,6 hPa 0,0 l/m 2 min 0 min 255 W/m 14,6 km/h (3 Bft)
06.08.2015 08:10 18,4 C 17,8 C 83 % 0 lf 1012,6 hPa 0,0 l/m 2 min 0 min 257 W/m 16,7 km/h (3 Bft)
06.08.2015 08:12 18,5 C 17,8 C 83 % 0 lf 1012,6 hPa 0,0 l/m 2 min 0 min 262 W/m 14,6 km/h (3 Bft)
06.08.2015 08:14 18,6 C 17,8 C 82 % 0 lf 1012,6 hPa 0,0 l/m 2 min 0 min 272 W/m 14,6 km/h (3 Bft)
06.08.2015 08:16 18,7 C 17,8 C 82 % 0 lf 1012,6 hPa 0,0 l/m 2 min 0 min 277 W/m 16,7 km/h (3 Bft)
06.08.2015 08:18 18,8 C 17,8 C 82 % 0 lf 1012,6 hPa 0,0 l/m 2 min 0 min 280 W/m 14,6 km/h (3 Bft)
06.08.2015 08:20 18,9 C 18,3 C 81 % 0 lf 1012,6 hPa 0,0 l/m 2 min 0 min 285 W/m 14,6 km/h (3 Bft)
06.08.2015 08:22 18,9 C 18,3 C 81 % 0 lf 1012,6 hPa 0,0 l/m 2 min 0 min 292 W/m 10,5 km/h (2 Bft)
06.08.2015 08:24 19,1 C 18,3 C 81 % 0 lf 1012,5 hPa 0,0 l/m 2 min 0 min 298 W/m 14,6 km/h (3 Bft)
06.08.2015 08:26 19,2 C 18,3 C 80 % 0 lf 1012,6 hPa 0,0 l/m 2 min 0 min 303 W/m 12,6 km/h (3 Bft)
06.08.2015 08:28 19,3 C 18,3 C 80 % 0 lf 1012,7 hPa 0,0 l/m 2 min 0 min 309 W/m 16,7 km/h (3 Bft)
06.08.2015 08:30 19,4 C 18,9 C 80 % 0 lf 1012,6 hPa 0,0 l/m 2 min 0 min 316 W/m 16,7 km/h (3 Bft)
06.08.2015 08:32 19,6 C 18,9 C 79 % 0 lf 1012,6 hPa 0,0 l/m 2 min 0 min 322 W/m 16,7 km/h (3 Bft)
06.08.2015 08:34 19,7 C 18,9 C 79 % 0 lf 1012,6 hPa 0,0 l/m 2 min 0 min 327 W/m 16,7 km/h (3 Bft)
06.08.2015 08:36 19,8 C 18,9 C 79 % 0 lf 1012,7 hPa 0,0 l/m 2 min 0 min 333 W/m 12,6 km/h (3 Bft)
06.08.2015 08:38 19,9 C 18,9 C 79 % 0 lf 1012,7 hPa 0,0 l/m 2 min 0 min 340 W/m 18,8 km/h (3 Bft)
06.08.2015 08:40 20,0 C 18,9 C 79 % 0 lf 1012,6 hPa 0,0 l/m 2 min 0 min 314 W/m 12,6 km/h (3 Bft)
06.08.2015 08:42 20,1 C 18,9 C 78 % 0 lf 1012,6 hPa 0,0 l/m 2 min 0 min 316 W/m 12,6 km/h (3 Bft)
06.08.2015 08:44 20,2 C 19,4 C 78 % 0 lf 1012,6 hPa 0,0 l/m 2 min 0 min 355 W/m 14,6 km/h (3 Bft)
06.08.2015 08:46 20,3 C 19,4 C 78 % 0 lf 1012,6 hPa 0,0 l/m 2 min 0 min 365 W/m 14,6 km/h (3 Bft)
06.08.2015 08:48 20,4 C 19,4 C 78 % 0 lf 1012,6 hPa 0,0 l/m 2 min 0 min 372 W/m 10,5 km/h (2 Bft)
06.08.2015 08:50 20,5 C 19,4 C 77 % 0 lf 1012,6 hPa 0,0 l/m 2 min 0 min 372 W/m 20,9 km/h (4 Bft)
06.08.2015 08:52 20,7 C 19,4 C 77 % 0 lf 1012,6 hPa 0,0 l/m 2 min 0 min 358 W/m 20,9 km/h (4 Bft)
06.08.2015 08:54 20,8 C 19,4 C 77 % 0 lf 1012,6 hPa 0,0 l/m 2 min 0 min 372 W/m 18,8 km/h (3 Bft)
06.08.2015 08:56 20,9 C 19,4 C 76 % 0 lf 1012,6 hPa 0,0 l/m 2 min 0 min 374 W/m 20,9 km/h (4 Bft)
06.08.2015 08:58 21,0 C 20,0 C 76 % 0 lf 1012,6 hPa 0,0 l/m 2 min 0 min 325 W/m 16,7 km/h (3 Bft)
06.08.2015 09:00 21,1 C 20,0 C 76 % 0 lf 1012,6 hPa 0,0 l/m 2 min 0 min 365 W/m 14,6 km/h (3 Bft)
06.08.2015 09:02 21,2 C 20,0 C 75 % 0 lf 1012,7 hPa 0,0 l/m 2 min 0 min 410 W/m 20,9 km/h (4 Bft)
06.08.2015 09:04 21,3 C 20,0 C 75 % 0 lf 1012,7 hPa 0,0 l/m 2 min 0 min 418 W/m 14,6 km/h (3 Bft)
06.08.2015 09:06 21,4 C 20,0 C 75 % 0 lf 1012,7 hPa 0,0 l/m 2 min 0 min 421 W/m 14,6 km/h (3 Bft)
06.08.2015 09:08 21,5 C 20,0 C 75 % 0 lf 1012,7 hPa 0,0 l/m 2 min 0 min 426 W/m 16,7 km/h (3 Bft)
06.08.2015 09:10 21,7 C 20,0 C 75 % 0 lf 1012,7 hPa 0,0 l/m 2 min 0 min 425 W/m 14,6 km/h (3 Bft)
06.08.2015 09:12 21,8 C 20,0 C 75 % 0 lf 1012,7 hPa 0,0 l/m 2 min 0 min 414 W/m 10,5 km/h (2 Bft)
06.08.2015 09:14 21,9 C 20,0 C 74 % 0 lf 1012,7 hPa 0,0 l/m 2 min 0 min 415 W/m 10,5 km/h (2 Bft)
06.08.2015 09:16 22,0 C 20,6 C 74 % 0 lf 1012,7 hPa 0,0 l/m 2 min 0 min 440 W/m 12,6 km/h (3 Bft)
06.08.2015 09:18 22,2 C 20,6 C 74 % 0 lf 1012,7 hPa 0,0 l/m 2 min 0 min 448 W/m 14,6 km/h (3 Bft)
06.08.2015 09:20 22,3 C 20,6 C 74 % 0 lf 1012,7 hPa 0,0 l/m 2 min 0 min 454 W/m 10,5 km/h (2 Bft)
06.08.2015 09:22 22,5 C 20,6 C 74 % 0 lf 1012,7 hPa 0,0 l/m 2 min 0 min 459 W/m 16,7 km/h (3 Bft)
06.08.2015 09:24 22,6 C 20,6 C 73 % 0 lf 1012,7 hPa 0,0 l/m 2 min 0 min 464 W/m 18,8 km/h (3 Bft)
06.08.2015 09:26 22,8 C 21,1 C 72 % 0 lf 1012,8 hPa 0,0 l/m 2 min 0 min 471 W/m 16,7 km/h (3 Bft)
06.08.2015 09:28 22,9 C 21,1 C 71 % 0 lf 1012,7 hPa 0,0 l/m 2 min 0 min 476 W/m 16,7 km/h (3 Bft)
06.08.2015 09:30 23,1 C 21,1 C 72 % 0 lf 1012,8 hPa 0,0 l/m 2 min 0 min 483 W/m 12,6 km/h (3 Bft)
06.08.2015 09:32 23,3 C 21,1 C 71 % 0 lf 1012,7 hPa 0,0 l/m 2 min 0 min 491 W/m 20,9 km/h (4 Bft)
06.08.2015 09:34 23,4 C 21,7 C 71 % 0 lf 1012,7 hPa 0,0 l/m 2 min 0 min 495 W/m 16,7 km/h (3 Bft)
06.08.2015 09:36 23,6 C 21,7 C 70 % 0 lf 1012,7 hPa 0,0 l/m 2 min 0 min 472 W/m 14,6 km/h (3 Bft)
06.08.2015 09:38 23,7 C 21,7 C 70 % 0 lf 1012,8 hPa 0,0 l/m 2 min 0 min 501 W/m 16,7 km/h (3 Bft)
06.08.2015 09:40 23,8 C 23,3 C 70 % 0 lf 1012,8 hPa 0,0 l/m 2 min 0 min 495 W/m 12,6 km/h (3 Bft)
06.08.2015 09:42 23,9 C 23,3 C 70 % 0 lf 1012,8 hPa 0,0 l/m 2 min 0 min 490 W/m 14,6 km/h (3 Bft)
06.08.2015 09:44 24,1 C 23,3 C 68 % 0 lf 1012,8 hPa 0,0 l/m 2 min 0 min 484 W/m 18,8 km/h (3 Bft)
06.08.2015 09:46 24,2 C 23,3 C 68 % 0 lf 1012,8 hPa 0,0 l/m 2 min 0 min 509 W/m 18,8 km/h (3 Bft)
06.08.2015 09:48 24,3 C 23,3 C 68 % 0 lf 1012,8 hPa 0,0 l/m 2 min 0 min 521 W/m 14,6 km/h (3 Bft)
06.08.2015 09:50 24,5 C 23,9 C 68 % 0 lf 1012,8 hPa 0,0 l/m 2 min 0 min 531 W/m 12,6 km/h (3 Bft)
06.08.2015 09:52 24,6 C 24,4 C 68 % 0 lf 1012,8 hPa 0,0 l/m 2 min 0 min 537 W/m 12,6 km/h (3 Bft)
06.08.2015 09:54 24,8 C 25,0 C 67 % 0 lf 1012,8 hPa 0,0 l/m 2 min 0 min 543 W/m 10,5 km/h (2 Bft)
06.08.2015 09:56 24,9 C 25,6 C 68 % 0 lf 1012,8 hPa 0,0 l/m 2 min 0 min 534 W/m 12,6 km/h (3 Bft)
06.08.2015 09:58 25,1 C 26,7 C 67 % 0 lf 1012,8 hPa 0,0 l/m 2 min 0 min 549 W/m 12,6 km/h (3 Bft)
06.08.2015 10:00 25,1 C 27,8 C 67 % 0 lf 1012,8 hPa 0,0 l/m 2 min 0 min 563 W/m 16,7 km/h (3 Bft)
06.08.2015 10:02 25,3 C 28,3 C 67 % 0 lf 1012,8 hPa 0,0 l/m 2 min 0 min 568 W/m 12,6 km/h (3 Bft)
06.08.2015 10:04 25,4 C 28,3 C 67 % 0 lf 1012,8 hPa 0,0 l/m 2 min 0 min 561 W/m 8,4 km/h (2 Bft)
06.08.2015 10:06 25,6 C 28,3 C 67 % 0 lf 1012,8 hPa 0,0 l/m 2 min 0 min 574 W/m 10,5 km/h (2 Bft)
06.08.2015 10:08 25,7 C 27,8 C 66 % 0 lf 1012,9 hPa 0,0 l/m 2 min 0 min 572 W/m 10,5 km/h (2 Bft)
06.08.2015 10:10 25,9 C 28,3 C 66 % 0 lf 1012,8 hPa 0,0 l/m 2 min 0 min 577 W/m 8,4 km/h (2 Bft)
06.08.2015 10:12 26,1 C 28,9 C 66 % 0 lf 1012,8 hPa 0,0 l/m 2 min 0 min 561 W/m 16,7 km/h (3 Bft)
06.08.2015 10:14 26,2 C 28,9 C 66 % 0 lf 1012,8 hPa 0,0 l/m 2 min 0 min 574 W/m 16,7 km/h (3 Bft)
06.08.2015 10:16 26,3 C 28,3 C 65 % 0 lf 1012,9 hPa 0,0 l/m 2 min 0 min 569 W/m 16,7 km/h (3 Bft)
06.08.2015 10:18 26,5 C 28,3 C 64 % 0 lf 1012,9 hPa 0,0 l/m 2 min 0 min 568 W/m 16,7 km/h (3 Bft)
06.08.2015 10:20 26,6 C 28,9 C 64 % 0 lf 1012,8 hPa 0,0 l/m 2 min 0 min 585 W/m 10,5 km/h (2 Bft)
06.08.2015 10:22 26,8 C 28,9 C 64 % 0 lf 1012,9 hPa 0,0 l/m 2 min 0 min 600 W/m 12,6 km/h (3 Bft)
06.08.2015 10:24 26,9 C 29,4 C 64 % 0 lf 1012,9 hPa 0,0 l/m 2 min 0 min 602 W/m 8,4 km/h (2 Bft)
06.08.2015 10:26 27,0 C 30,0 C 63 % 0 lf 1012,9 hPa 0,0 l/m 2 min 0 min 608 W/m 12,6 km/h (3 Bft)
06.08.2015 10:28 27,2 C 30,6 C 63 % 0 lf 1012,9 hPa 0,0 l/m 2 min 0 min 597 W/m 12,6 km/h (3 Bft)
06.08.2015 10:30 27,3 C 30,6 C 63 % 0 lf 1012,8 hPa 0,0 l/m 2 min 0 min 616 W/m 10,5 km/h (2 Bft)
06.08.2015 10:32 27,4 C 30,6 C 62 % 0 lf 1012,8 hPa 0,0 l/m 2 min 0 min 619 W/m 16,7 km/h (3 Bft)
06.08.2015 10:34 27,6 C 31,1 C 63 % 0 lf 1012,9 hPa 0,0 l/m 2 min 0 min 624 W/m 16,7 km/h (3 Bft)
06.08.2015 10:36 27,6 C 31,1 C 61 % 0 lf 1012,8 hPa 0,0 l/m 2 min 0 min 633 W/m 10,5 km/h (2 Bft)
06.08.2015 10:38 27,7 C 30,0 C 62 % 0 lf 1012,8 hPa 0,0 l/m 2 min 0 min 634 W/m 10,5 km/h (2 Bft)
06.08.2015 10:40 27,8 C 28,9 C 61 % 0 lf 1012,8 hPa 0,0 l/m 2 min 0 min 625 W/m 10,5 km/h (2 Bft)
06.08.2015 10:42 27,9 C 27,8 C 59 % 0 lf 1012,8 hPa 0,0 l/m 2 min 0 min 590 W/m 10,5 km/h (2 Bft)
06.08.2015 10:44 27,9 C 27,8 C 60 % 0 lf 1012,8 hPa 0,0 l/m 2 min 0 min 613 W/m 10,5 km/h (2 Bft)
06.08.2015 10:46 28,0 C 27,2 C 60 % 0 lf 1012,8 hPa 0,0 l/m 2 min 0 min 633 W/m 12,6 km/h (3 Bft)
06.08.2015 10:48 28,1 C 26,7 C 61 % 0 lf 1012,8 hPa 0,0 l/m 2 min 0 min 645 W/m 8,4 km/h (2 Bft)
06.08.2015 10:50 28,2 C 26,7 C 59 % 0 lf 1012,7 hPa 0,0 l/m 2 min 0 min 639 W/m 12,6 km/h (3 Bft)
06.08.2015 10:52 28,3 C 26,7 C 60 % 0 lf 1012,7 hPa 0,0 l/m 2 min 0 min 621 W/m 8,4 km/h (2 Bft)
06.08.2015 10:54 28,4 C 27,2 C 59 % 0 lf 1012,7 hPa 0,0 l/m 2 min 0 min 624 W/m 10,5 km/h (2 Bft)
06.08.2015 10:56 28,4 C 27,2 C 59 % 0 lf 1012,7 hPa 0,0 l/m 2 min 0 min 630 W/m 10,5 km/h (2 Bft)
06.08.2015 10:58 28,5 C 28,3 C 59 % 0 lf 1012,7 hPa 0,0 l/m 2 min 0 min 668 W/m 8,4 km/h (2 Bft)
06.08.2015 11:00 28,6 C 29,4 C 58 % 0 lf 1012,7 hPa 0,0 l/m 2 min 0 min 658 W/m 16,7 km/h (3 Bft)
06.08.2015 11:02 28,7 C 29,4 C 58 % 0 lf 1012,7 hPa 0,0 l/m 2 min 0 min 659 W/m 6,3 km/h (2 Bft)
06.08.2015 11:04 28,8 C 29,4 C 58 % 0 lf 1012,7 hPa 0,0 l/m 2 min 0 min 673 W/m 8,4 km/h (2 Bft)
06.08.2015 11:06 28,9 C 29,4 C 59 % 0 lf 1012,7 hPa 0,0 l/m 2 min 0 min 657 W/m 8,4 km/h (2 Bft)
06.08.2015 11:08 29,0 C 29,4 C 59 % 0 lf 1012,7 hPa 0,0 l/m 2 min 0 min 685 W/m 8,4 km/h (2 Bft)
06.08.2015 11:10 29,1 C 28,9 C 58 % 0 lf 1012,7 hPa 0,0 l/m 2 min 0 min 641 W/m 10,5 km/h (2 Bft)
06.08.2015 11:12 29,2 C 28,3 C 58 % 0 lf 1012,7 hPa 0,0 l/m 2 min 0 min 658 W/m 14,6 km/h (3 Bft)
06.08.2015 11:14 29,3 C 28,3 C 57 % 0 lf 1012,7 hPa 0,0 l/m 2 min 0 min 670 W/m 8,4 km/h (2 Bft)
06.08.2015 11:16 29,5 C 27,8 C 58 % 0 lf 1012,7 hPa 0,0 l/m 2 min 0 min 692 W/m 8,4 km/h (2 Bft)
06.08.2015 11:18 29,6 C 27,2 C 57 % 0 lf 1012,7 hPa 0,0 l/m 2 min 0 min 699 W/m 8,4 km/h (2 Bft)
06.08.2015 11:20 29,7 C 27,8 C 57 % 0 lf 1012,7 hPa 0,0 l/m 2 min 0 min 693 W/m 14,6 km/h (3 Bft)
06.08.2015 11:22 29,8 C 27,8 C 57 % 0 lf 1012,7 hPa 0,0 l/m 2 min 0 min 679 W/m 16,7 km/h (3 Bft)
06.08.2015 11:24 29,9 C 27,2 C 57 % 0 lf 1012,6 hPa 0,0 l/m 2 min 0 min 679 W/m 8,4 km/h (2 Bft)
06.08.2015 11:26 30,0 C 27,8 C 56 % 0 lf 1012,6 hPa 0,0 l/m 2 min 0 min 614 W/m 8,4 km/h (2 Bft)
06.08.2015 11:28 30,1 C 27,8 C 56 % 0 lf 1012,6 hPa 0,0 l/m 2 min 0 min 633 W/m 14,6 km/h (3 Bft)
06.08.2015 11:30 30,2 C 27,8 C 55 % 0 lf 1012,6 hPa 0,0 l/m 2 min 0 min 722 W/m 12,6 km/h (3 Bft)
06.08.2015 11:32 30,2 C 27,8 C 55 % 0 lf 1012,6 hPa 0,0 l/m 2 min 0 min 734 W/m 8,4 km/h (2 Bft)
06.08.2015 11:34 30,3 C 28,3 C 55 % 0 lf 1012,7 hPa 0,0 l/m 2 min 0 min 750 W/m 12,6 km/h (3 Bft)
06.08.2015 11:36 30,4 C 28,9 C 56 % 0 lf 1012,6 hPa 0,0 l/m 2 min 0 min 733 W/m 8,4 km/h (2 Bft)
06.08.2015 11:38 30,6 C 28,9 C 55 % 0 lf 1012,6 hPa 0,0 l/m 2 min 0 min 707 W/m 10,5 km/h (2 Bft)
06.08.2015 11:40 30,6 C 28,9 C 54 % 0 lf 1012,6 hPa 0,0 l/m 2 min 0 min 716 W/m 14,6 km/h (3 Bft)
06.08.2015 11:42 30,7 C 28,9 C 55 % 0 lf 1012,7 hPa 0,0 l/m 2 min 0 min 731 W/m 12,6 km/h (3 Bft)
06.08.2015 11:44 30,8 C 28,9 C 55 % 0 lf 1012,6 hPa 0,0 l/m 2 min 0 min 720 W/m 8,4 km/h (2 Bft)
06.08.2015 11:46 30,9 C 30,0 C 56 % 0 lf 1012,6 hPa 0,0 l/m 2 min 0 min 722 W/m 8,4 km/h (2 Bft)
06.08.2015 11:48 31,0 C 31,1 C 55 % 0 lf 1012,6 hPa 0,0 l/m 2 min 0 min 752 W/m 14,6 km/h (3 Bft)
06.08.2015 11:50 31,1 C 31,1 C 53 % 0 lf 1012,6 hPa 0,0 l/m 2 min 0 min 737 W/m 16,7 km/h (3 Bft)
06.08.2015 11:52 31,2 C 31,1 C 52 % 0 lf 1012,6 hPa 0,0 l/m 2 min 0 min 683 W/m 14,6 km/h (3 Bft)
06.08.2015 11:54 31,2 C 30,6 C 52 % 0 lf 1012,6 hPa 0,0 l/m 2 min 0 min 653 W/m 12,6 km/h (3 Bft)
06.08.2015 11:56 31,3 C 31,1 C 53 % 0 lf 1012,6 hPa 0,0 l/m 2 min 0 min 591 W/m 14,6 km/h (3 Bft)
06.08.2015 11:58 31,4 C 31,1 C 52 % 0 lf 1012,6 hPa 0,0 l/m 2 min 0 min 496 W/m 10,5 km/h (2 Bft)
06.08.2015 12:00 31,5 C 30,6 C 53 % 0 lf 1012,5 hPa 0,0 l/m 2 min 0 min 426 W/m 16,7 km/h (3 Bft)
06.08.2015 12:02 31,6 C 30,0 C 51 % 0 lf 1012,5 hPa 0,0 l/m 2 min 0 min 447 W/m 14,6 km/h (3 Bft)
06.08.2015 12:05 31,7 C 30,0 C 51 % 0 lf 1012,6 hPa 0,0 l/m 2 min 0 min 707 W/m 16,7 km/h (3 Bft)
06.08.2015 12:08 31,8 C 30,0 C 51 % 0 lf 1012,6 hPa 0,0 l/m 2 min 0 min 632 W/m 16,7 km/h (3 Bft)
06.08.2015 12:10 31,9 C 31,1 C 50 % 0 lf 1012,5 hPa 0,0 l/m 2 min 0 min 637 W/m 16,7 km/h (3 Bft)
06.08.2015 12:12 32,0 C 31,1 C 51 % 0 lf 1012,6 hPa 0,0 l/m 2 min 0 min 718 W/m 16,7 km/h (3 Bft)
06.08.2015 12:14 32,1 C 30,6 C 50 % 0 lf 1012,5 hPa 0,0 l/m 2 min 0 min 690 W/m 18,8 km/h (3 Bft)
06.08.2015 12:16 32,1 C 30,6 C 50 % 0 lf 1012,6 hPa 0,0 l/m 2 min 0 min 709 W/m 23,0 km/h (4 Bft)
06.08.2015 12:18 32,2 C 30,6 C 50 % 0 lf 1012,6 hPa 0,0 l/m 2 min 0 min 636 W/m 14,6 km/h (3 Bft)
06.08.2015 12:20 32,2 C 31,1 C 49 % 0 lf 1012,6 hPa 0,0 l/m 0 min 0 min 287 W/m 14,6 km/h (3 Bft)
06.08.2015 12:22 32,3 C 31,1 C 50 % 0 lf 1012,6 hPa 0,0 l/m 2 min 0 min 604 W/m 16,7 km/h (3 Bft)
06.08.2015 12:24 32,4 C 31,1 C 50 % 0 lf 1012,6 hPa 0,0 l/m 2 min 0 min 737 W/m 16,7 km/h (3 Bft)
06.08.2015 12:26 32,4 C 31,1 C 49 % 0 lf 1012,6 hPa 0,0 l/m 2 min 0 min 763 W/m 10,5 km/h (2 Bft)
06.08.2015 12:28 32,5 C 31,1 C 50 % 0 lf 1012,5 hPa 0,0 l/m 2 min 0 min 797 W/m 10,5 km/h (2 Bft)
06.08.2015 12:30 32,6 C 31,1 C 50 % 0 lf 1012,6 hPa 0,0 l/m 2 min 0 min 758 W/m 20,9 km/h (4 Bft)
06.08.2015 12:32 32,7 C 30,6 C 50 % 0 lf 1012,6 hPa 0,0 l/m 2 min 0 min 775 W/m 14,6 km/h (3 Bft)
06.08.2015 12:34 32,7 C 30,0 C 48 % 0 lf 1012,6 hPa 0,0 l/m 2 min 0 min 794 W/m 23,0 km/h (4 Bft)
06.08.2015 12:36 32,8 C 30,0 C 50 % 0 lf 1012,5 hPa 0,0 l/m 2 min 0 min 737 W/m 14,6 km/h (3 Bft)
06.08.2015 12:38 32,8 C 30,0 C 49 % 0 lf 1012,5 hPa 0,0 l/m 2 min 0 min 701 W/m 10,5 km/h (2 Bft)
06.08.2015 12:40 32,9 C 30,6 C 49 % 0 lf 1012,5 hPa 0,0 l/m 2 min 0 min 806 W/m 10,5 km/h (2 Bft)
06.08.2015 12:42 32,9 C 30,6 C 48 % 0 lf 1012,5 hPa 0,0 l/m 2 min 0 min 837 W/m 12,6 km/h (3 Bft)
06.08.2015 12:44 33,0 C 30,6 C 49 % 0 lf 1012,5 hPa 0,0 l/m 2 min 0 min 799 W/m 14,6 km/h (3 Bft)
06.08.2015 12:46 33,0 C 31,1 C 49 % 0 lf 1012,6 hPa 0,0 l/m 2 min 0 min 781 W/m 16,7 km/h (3 Bft)
06.08.2015 12:48 33,0 C 30,6 C 48 % 0 lf 1012,5 hPa 0,0 l/m 2 min 0 min 794 W/m 25,1 km/h (4 Bft)
06.08.2015 12:50 33,1 C 30,6 C 49 % 0 lf 1012,5 hPa 0,0 l/m 2 min 0 min 737 W/m 16,7 km/h (3 Bft)
06.08.2015 12:52 33,1 C 30,6 C 49 % 0 lf 1012,5 hPa 0,0 l/m 2 min 0 min 720 W/m 18,8 km/h (3 Bft)
06.08.2015 12:54 33,2 C 30,6 C 48 % 0 lf 1012,4 hPa 0,0 l/m 2 min 0 min 760 W/m 18,8 km/h (3 Bft)
06.08.2015 12:56 33,2 C 30,6 C 49 % 0 lf 1012,4 hPa 0,0 l/m 2 min 0 min 730 W/m 18,8 km/h (3 Bft)
06.08.2015 12:58 33,3 C 30,6 C 47 % 0 lf 1012,4 hPa 0,0 l/m 2 min 0 min 753 W/m 16,7 km/h (3 Bft)
06.08.2015 13:00 33,3 C 30,6 C 47 % 0 lf 1012,4 hPa 0,0 l/m 2 min 0 min 833 W/m 20,9 km/h (4 Bft)
06.08.2015 13:02 33,3 C 30,6 C 48 % 0 lf 1012,4 hPa 0,0 l/m 2 min 0 min 823 W/m 16,7 km/h (3 Bft)
06.08.2015 13:04 33,4 C 30,6 C 47 % 0 lf 1012,4 hPa 0,0 l/m 2 min 0 min 775 W/m 20,9 km/h (4 Bft)
06.08.2015 13:06 33,4 C 31,1 C 47 % 0 lf 1012,4 hPa 0,0 l/m 2 min 0 min 736 W/m 14,6 km/h (3 Bft)
06.08.2015 13:08 33,5 C 30,6 C 48 % 0 lf 1012,4 hPa 0,0 l/m 2 min 0 min 718 W/m 23,0 km/h (4 Bft)
06.08.2015 13:10 33,5 C 30,6 C 46 % 0 lf 1012,4 hPa 0,0 l/m 2 min 0 min 754 W/m 25,1 km/h (4 Bft)
06.08.2015 13:12 33,5 C 30,6 C 49 % 0 lf 1012,4 hPa 0,0 l/m 2 min 0 min 697 W/m 12,6 km/h (3 Bft)
06.08.2015 13:14 33,5 C 30,6 C 48 % 0 lf 1012,3 hPa 0,0 l/m 2 min 0 min 687 W/m 18,8 km/h (3 Bft)
06.08.2015 13:16 33,5 C 30,6 C 48 % 0 lf 1012,4 hPa 0,0 l/m 2 min 0 min 634 W/m 12,6 km/h (3 Bft)
06.08.2015 13:18 33,6 C 31,1 C 47 % 0 lf 1012,3 hPa 0,0 l/m 2 min 0 min 674 W/m 14,6 km/h (3 Bft)
06.08.2015 13:20 33,6 C 31,1 C 48 % 0 lf 1012,3 hPa 0,0 l/m 2 min 0 min 823 W/m 10,5 km/h (2 Bft)
06.08.2015 13:22 33,7 C 31,1 C 48 % 0 lf 1012,3 hPa 0,0 l/m 2 min 0 min 800 W/m 23,0 km/h (4 Bft)
06.08.2015 13:24 33,7 C 31,7 C 49 % 0 lf 1012,3 hPa 0,0 l/m 2 min 0 min 795 W/m 16,7 km/h (3 Bft)
06.08.2015 13:26 33,8 C 31,1 C 48 % 0 lf 1012,3 hPa 0,0 l/m 2 min 0 min 800 W/m 23,0 km/h (4 Bft)
06.08.2015 13:28 33,8 C 31,1 C 48 % 0 lf 1012,2 hPa 0,0 l/m 2 min 0 min 773 W/m 14,6 km/h (3 Bft)
06.08.2015 13:30 33,9 C 31,1 C 48 % 0 lf 1012,3 hPa 0,0 l/m 2 min 0 min 831 W/m 18,8 km/h (3 Bft)
06.08.2015 13:32 33,9 C 31,1 C 47 % 0 lf 1012,3 hPa 0,0 l/m 2 min 0 min 794 W/m 25,1 km/h (4 Bft)
06.08.2015 13:34 33,9 C 31,1 C 46 % 0 lf 1012,3 hPa 0,0 l/m 2 min 0 min 774 W/m 25,1 km/h (4 Bft)
06.08.2015 13:36 33,9 C 31,1 C 47 % 0 lf 1012,3 hPa 0,0 l/m 2 min 0 min 768 W/m 29,3 km/h (5 Bft)
06.08.2015 13:38 33,9 C 31,1 C 47 % 0 lf 1012,4 hPa 0,0 l/m 2 min 0 min 760 W/m 23,0 km/h (4 Bft)
06.08.2015 13:40 34,0 C 31,1 C 46 % 0 lf 1012,3 hPa 0,0 l/m 2 min 0 min 820 W/m 20,9 km/h (4 Bft)
06.08.2015 13:42 34,0 C 31,1 C 47 % 0 lf 1012,3 hPa 0,0 l/m 2 min 0 min 810 W/m 14,6 km/h (3 Bft)
06.08.2015 13:44 34,0 C 31,1 C 46 % 0 lf 1012,3 hPa 0,0 l/m 2 min 0 min 792 W/m 16,7 km/h (3 Bft)
06.08.2015 13:46 34,1 C 31,7 C 47 % 0 lf 1012,3 hPa 0,0 l/m 2 min 0 min 792 W/m 12,6 km/h (3 Bft)
06.08.2015 13:48 34,1 C 31,1 C 46 % 0 lf 1012,3 hPa 0,0 l/m 2 min 0 min 771 W/m 20,9 km/h (4 Bft)
06.08.2015 13:50 34,1 C 31,1 C 46 % 0 lf 1012,2 hPa 0,0 l/m 2 min 0 min 758 W/m 29,3 km/h (5 Bft)
06.08.2015 13:52 34,1 C 31,1 C 46 % 0 lf 1012,2 hPa 0,0 l/m 2 min 0 min 794 W/m 29,3 km/h (5 Bft)
06.08.2015 13:54 34,2 C 31,1 C 47 % 0 lf 1012,3 hPa 0,0 l/m 2 min 0 min 778 W/m 18,8 km/h (3 Bft)
06.08.2015 13:56 34,2 C 31,1 C 45 % 0 lf 1012,3 hPa 0,0 l/m 2 min 0 min 779 W/m 20,9 km/h (4 Bft)
06.08.2015 13:58 34,2 C 31,7 C 47 % 0 lf 1012,3 hPa 0,0 l/m 2 min 0 min 710 W/m 14,6 km/h (3 Bft)
06.08.2015 14:00 34,3 C 31,7 C 46 % 0 lf 1012,3 hPa 0,0 l/m 2 min 0 min 779 W/m 14,6 km/h (3 Bft)
06.08.2015 14:02 34,3 C 31,7 C 46 % 0 lf 1012,3 hPa 0,0 l/m 2 min 0 min 770 W/m 14,6 km/h (3 Bft)
06.08.2015 14:04 34,3 C 31,7 C 48 % 0 lf 1012,3 hPa 0,0 l/m 2 min 0 min 768 W/m 18,8 km/h (3 Bft)
06.08.2015 14:06 34,4 C 31,7 C 46 % 0 lf 1012,3 hPa 0,0 l/m 2 min 0 min 729 W/m 27,2 km/h (4 Bft)
06.08.2015 14:08 34,4 C 31,7 C 45 % 0 lf 1012,3 hPa 0,0 l/m 2 min 0 min 816 W/m 16,7 km/h (3 Bft)
06.08.2015 14:10 34,4 C 31,7 C 45 % 0 lf 1012,3 hPa 0,0 l/m 2 min 0 min 806 W/m 20,9 km/h (4 Bft)
06.08.2015 14:12 34,4 C 31,7 C 46 % 0 lf 1012,4 hPa 0,0 l/m 2 min 0 min 794 W/m 16,7 km/h (3 Bft)
06.08.2015 14:14 34,5 C 32,2 C 46 % 0 lf 1012,4 hPa 0,0 l/m 2 min 0 min 850 W/m 20,9 km/h (4 Bft)
06.08.2015 14:16 34,6 C 31,7 C 47 % 0 lf 1012,4 hPa 0,0 l/m 2 min 0 min 850 W/m 16,7 km/h (3 Bft)
06.08.2015 14:18 34,6 C 32,2 C 45 % 0 lf 1012,3 hPa 0,0 l/m 2 min 0 min 840 W/m 20,9 km/h (4 Bft)
06.08.2015 14:20 34,6 C 32,2 C 45 % 0 lf 1012,3 hPa 0,0 l/m 2 min 0 min 847 W/m 14,6 km/h (3 Bft)
06.08.2015 14:22 34,7 C 32,2 C 45 % 0 lf 1012,3 hPa 0,0 l/m 2 min 0 min 848 W/m 20,9 km/h (4 Bft)
06.08.2015 14:24 34,7 C 32,2 C 45 % 0 lf 1012,3 hPa 0,0 l/m 2 min 0 min 798 W/m 16,7 km/h (3 Bft)
06.08.2015 14:26 34,8 C 32,2 C 46 % 0 lf 1012,4 hPa 0,0 l/m 2 min 0 min 816 W/m 14,6 km/h (3 Bft)
06.08.2015 14:28 34,9 C 32,2 C 44 % 0 lf 1012,3 hPa 0,0 l/m 2 min 0 min 802 W/m 20,9 km/h (4 Bft)
06.08.2015 14:30 34,9 C 32,2 C 44 % 0 lf 1012,3 hPa 0,0 l/m 2 min 0 min 809 W/m 16,7 km/h (3 Bft)
06.08.2015 14:32 35,0 C 32,2 C 44 % 0 lf 1012,3 hPa 0,0 l/m 2 min 0 min 774 W/m 12,6 km/h (3 Bft)
06.08.2015 14:34 35,1 C 32,2 C 44 % 0 lf 1012,3 hPa 0,0 l/m 2 min 0 min 797 W/m 25,1 km/h (4 Bft)
06.08.2015 14:36 35,1 C 32,2 C 42 % 0 lf 1012,4 hPa 0,0 l/m 2 min 0 min 804 W/m 29,3 km/h (5 Bft)
06.08.2015 14:38 35,1 C 31,7 C 43 % 0 lf 1012,4 hPa 0,0 l/m 2 min 0 min 809 W/m 27,2 km/h (4 Bft)
06.08.2015 14:40 35,0 C 31,7 C 42 % 0 lf 1012,4 hPa 0,0 l/m 2 min 0 min 809 W/m 23,0 km/h (4 Bft)
06.08.2015 14:42 35,0 C 31,7 C 41 % 0 lf 1012,4 hPa 0,0 l/m 2 min 0 min 811 W/m 33,5 km/h (5 Bft)
06.08.2015 14:44 34,9 C 31,7 C 41 % 0 lf 1012,4 hPa 0,0 l/m 2 min 0 min 801 W/m 31,4 km/h (5 Bft)
06.08.2015 14:46 34,8 C 31,7 C 43 % 0 lf 1012,5 hPa 0,0 l/m 2 min 0 min 796 W/m 29,3 km/h (5 Bft)
06.08.2015 14:48 34,7 C 31,7 C 42 % 0 lf 1012,4 hPa 0,0 l/m 2 min 0 min 778 W/m 31,4 km/h (5 Bft)
06.08.2015 14:50 34,6 C 31,7 C 42 % 0 lf 1012,4 hPa 0,0 l/m 2 min 0 min 791 W/m 35,6 km/h (5 Bft)
06.08.2015 14:52 34,6 C 31,7 C 43 % 0 lf 1012,4 hPa 0,0 l/m 2 min 0 min 797 W/m 41,8 km/h (6 Bft)
06.08.2015 14:54 34,5 C 31,7 C 43 % 0 lf 1012,4 hPa 0,0 l/m 2 min 0 min 774 W/m 29,3 km/h (5 Bft)
06.08.2015 14:56 34,4 C 31,1 C 43 % 0 lf 1012,4 hPa 0,0 l/m 2 min 0 min 754 W/m 29,3 km/h (5 Bft)
06.08.2015 14:58 34,3 C 31,1 C 44 % 0 lf 1012,4 hPa 0,0 l/m 2 min 0 min 763 W/m 33,5 km/h (5 Bft)
06.08.2015 15:00 34,3 C 31,7 C 45 % 0 lf 1012,4 hPa 0,0 l/m 2 min 0 min 784 W/m 18,8 km/h (3 Bft)
06.08.2015 15:02 34,3 C 31,7 C 45 % 0 lf 1012,4 hPa 0,0 l/m 2 min 0 min 753 W/m 27,2 km/h (4 Bft)
06.08.2015 15:04 34,3 C 31,7 C 45 % 0 lf 1012,4 hPa 0,0 l/m 2 min 0 min 788 W/m 25,1 km/h (4 Bft)
06.08.2015 15:06 34,3 C 31,7 C 45 % 0 lf 1012,4 hPa 0,0 l/m 2 min 0 min 786 W/m 18,8 km/h (3 Bft)
06.08.2015 15:08 34,3 C 31,7 C 44 % 0 lf 1012,4 hPa 0,0 l/m 2 min 0 min 785 W/m 29,3 km/h (5 Bft)
06.08.2015 15:10 34,3 C 32,2 C 44 % 0 lf 1012,4 hPa 0,0 l/m 2 min 0 min 779 W/m 25,1 km/h (4 Bft)
06.08.2015 15:12 34,4 C 32,2 C 44 % 0 lf 1012,3 hPa 0,0 l/m 2 min 0 min 766 W/m 20,9 km/h (4 Bft)
06.08.2015 15:14 34,4 C 32,2 C 43 % 0 lf 1012,3 hPa 0,0 l/m 2 min 0 min 756 W/m 31,4 km/h (5 Bft)
06.08.2015 15:16 34,4 C 32,2 C 43 % 0 lf 1012,3 hPa 0,0 l/m 2 min 0 min 755 W/m 29,3 km/h (5 Bft)
06.08.2015 15:18 34,5 C 32,2 C 45 % 0 lf 1012,4 hPa 0,0 l/m 2 min 0 min 753 W/m 29,3 km/h (5 Bft)
06.08.2015 15:20 34,6 C 32,2 C 45 % 0 lf 1012,4 hPa 0,0 l/m 2 min 0 min 724 W/m 25,1 km/h (4 Bft)
06.08.2015 15:22 34,6 C 32,2 C 42 % 0 lf 1012,4 hPa 0,0 l/m 2 min 0 min 736 W/m 33,5 km/h (5 Bft)
06.08.2015 15:24 34,6 C 32,2 C 43 % 0 lf 1012,4 hPa 0,0 l/m 2 min 0 min 742 W/m 35,6 km/h (5 Bft)
06.08.2015 15:26 34,6 C 32,2 C 43 % 0 lf 1012,5 hPa 0,0 l/m 2 min 0 min 747 W/m 25,1 km/h (4 Bft)
06.08.2015 15:28 34,6 C 32,2 C 42 % 0 lf 1012,4 hPa 0,0 l/m 2 min 0 min 741 W/m 27,2 km/h (4 Bft)
06.08.2015 15:30 34,7 C 32,2 C 42 % 0 lf 1012,4 hPa 0,0 l/m 2 min 0 min 697 W/m 25,1 km/h (4 Bft)
06.08.2015 15:32 34,6 C 32,2 C 43 % 0 lf 1012,4 hPa 0,0 l/m 2 min 0 min 720 W/m 23,0 km/h (4 Bft)
06.08.2015 15:34 34,6 C 32,2 C 43 % 0 lf 1012,4 hPa 0,0 l/m 2 min 0 min 713 W/m 20,9 km/h (4 Bft)
06.08.2015 15:36 34,6 C 32,2 C 42 % 0 lf 1012,5 hPa 0,0 l/m 2 min 0 min 669 W/m 27,2 km/h (4 Bft)
06.08.2015 15:38 34,5 C 31,7 C 43 % 0 lf 1012,5 hPa 0,0 l/m 0 min 0 min 233 W/m 23,0 km/h (4 Bft)
06.08.2015 15:40 34,5 C 31,7 C 44 % 0 lf 1012,5 hPa 0,0 l/m 2 min 0 min 753 W/m 29,3 km/h (5 Bft)
06.08.2015 15:42 34,5 C 32,2 C 43 % 0 lf 1012,5 hPa 0,0 l/m 2 min 0 min 739 W/m 20,9 km/h (4 Bft)
06.08.2015 15:44 34,4 C 32,8 C 43 % 0 lf 1012,5 hPa 0,0 l/m 2 min 0 min 732 W/m 33,5 km/h (5 Bft)
06.08.2015 15:46 34,4 C 32,2 C 42 % 0 lf 1012,5 hPa 0,0 l/m 2 min 0 min 729 W/m 33,5 km/h (5 Bft)
06.08.2015 15:48 34,2 C 33,9 C 42 % 0 lf 1012,6 hPa 0,0 l/m 2 min 0 min 727 W/m 37,7 km/h (5 Bft)
06.08.2015 15:50 34,1 C 35,0 C 44 % 0 lf 1012,5 hPa 0,0 l/m 2 min 0 min 704 W/m 23,0 km/h (4 Bft)
06.08.2015 15:52 34,1 C 36,1 C 42 % 0 lf 1012,4 hPa 0,0 l/m 2 min 0 min 699 W/m 16,7 km/h (3 Bft)
06.08.2015 15:54 34,1 C 36,7 C 43 % 0 lf 1012,5 hPa 0,0 l/m 2 min 0 min 693 W/m 27,2 km/h (4 Bft)
06.08.2015 15:56 34,1 C 36,1 C 43 % 0 lf 1012,5 hPa 0,0 l/m 2 min 0 min 687 W/m 33,5 km/h (5 Bft)
06.08.2015 15:58 34,1 C 36,7 C 43 % 0 lf 1012,6 hPa 0,0 l/m 2 min 0 min 675 W/m 29,3 km/h (5 Bft)
06.08.2015 16:00 34,1 C 36,1 C 42 % 0 lf 1012,6 hPa 0,0 l/m 2 min 0 min 688 W/m 29,3 km/h (5 Bft)
06.08.2015 16:02 34,1 C 36,7 C 43 % 0 lf 1012,7 hPa 0,0 l/m 2 min 0 min 682 W/m 31,4 km/h (5 Bft)
06.08.2015 16:04 34,1 C 36,7 C 41 % 0 lf 1012,7 hPa 0,0 l/m 2 min 0 min 679 W/m 41,8 km/h (6 Bft)
06.08.2015 16:06 34,1 C 36,1 C 43 % 0 lf 1012,7 hPa 0,0 l/m 2 min 0 min 671 W/m 37,7 km/h (5 Bft)
06.08.2015 16:08 34,1 C 34,4 C 43 % 0 lf 1012,7 hPa 0,0 l/m 2 min 0 min 668 W/m 31,4 km/h (5 Bft)
06.08.2015 16:10 34,0 C 33,3 C 42 % 0 lf 1012,8 hPa 0,0 l/m 2 min 0 min 667 W/m 25,1 km/h (4 Bft)
06.08.2015 16:12 34,0 C 32,2 C 43 % 0 lf 1012,8 hPa 0,0 l/m 2 min 0 min 660 W/m 31,4 km/h (5 Bft)
06.08.2015 16:14 34,1 C 32,2 C 42 % 0 lf 1012,8 hPa 0,0 l/m 2 min 0 min 660 W/m 35,6 km/h (5 Bft)
06.08.2015 16:16 34,1 C 31,7 C 41 % 0 lf 1012,7 hPa 0,0 l/m 2 min 0 min 656 W/m 29,3 km/h (5 Bft)
06.08.2015 16:18 34,0 C 31,7 C 42 % 0 lf 1012,7 hPa 0,0 l/m 2 min 0 min 641 W/m 29,3 km/h (5 Bft)
06.08.2015 16:20 34,0 C 31,7 C 42 % 0 lf 1012,7 hPa 0,0 l/m 2 min 0 min 651 W/m 29,3 km/h (5 Bft)
06.08.2015 16:22 34,1 C 31,7 C 43 % 0 lf 1012,7 hPa 0,0 l/m 2 min 0 min 642 W/m 25,1 km/h (4 Bft)
06.08.2015 16:24 34,1 C 31,7 C 43 % 0 lf 1012,9 hPa 0,0 l/m 2 min 0 min 638 W/m 41,8 km/h (6 Bft)
06.08.2015 16:26 34,1 C 31,7 C 41 % 0 lf 1012,8 hPa 0,0 l/m 2 min 0 min 634 W/m 33,5 km/h (5 Bft)
06.08.2015 16:28 34,1 C 31,7 C 43 % 0 lf 1012,8 hPa 0,0 l/m 2 min 0 min 633 W/m 33,5 km/h (5 Bft)
06.08.2015 16:30 34,1 C 31,7 C 41 % 0 lf 1012,9 hPa 0,0 l/m 2 min 0 min 629 W/m 31,4 km/h (5 Bft)
06.08.2015 16:32 34,0 C 31,7 C 41 % 0 lf 1012,9 hPa 0,0 l/m 2 min 0 min 629 W/m 39,7 km/h (6 Bft)
06.08.2015 16:34 34,0 C 31,7 C 40 % 0 lf 1012,9 hPa 0,0 l/m 2 min 0 min 627 W/m 33,5 km/h (5 Bft)
06.08.2015 16:36 33,9 C 31,1 C 40 % 0 lf 1012,9 hPa 0,0 l/m 2 min 0 min 619 W/m 37,7 km/h (5 Bft)
06.08.2015 16:38 33,9 C 31,1 C 41 % 0 lf 1012,8 hPa 0,0 l/m 2 min 0 min 616 W/m 29,3 km/h (5 Bft)
06.08.2015 16:40 33,8 C 31,1 C 40 % 0 lf 1012,8 hPa 0,0 l/m 2 min 0 min 609 W/m 29,3 km/h (5 Bft)
06.08.2015 16:42 33,8 C 31,1 C 41 % 0 lf 1012,8 hPa 0,0 l/m 2 min 0 min 611 W/m 33,5 km/h (5 Bft)
06.08.2015 16:44 33,8 C 31,1 C 40 % 0 lf 1012,8 hPa 0,0 l/m 2 min 0 min 618 W/m 25,1 km/h (4 Bft)
06.08.2015 16:46 33,8 C 31,1 C 41 % 0 lf 1012,8 hPa 0,0 l/m 2 min 0 min 601 W/m 20,9 km/h (4 Bft)
06.08.2015 16:48 33,8 C 31,1 C 42 % 0 lf 1012,9 hPa 0,0 l/m 2 min 0 min 596 W/m 14,6 km/h (3 Bft)
06.08.2015 16:50 33,9 C 31,1 C 41 % 0 lf 1012,8 hPa 0,0 l/m 2 min 0 min 590 W/m 33,5 km/h (5 Bft)
06.08.2015 16:52 33,9 C 31,1 C 41 % 0 lf 1012,9 hPa 0,0 l/m 2 min 0 min 586 W/m 29,3 km/h (5 Bft)
06.08.2015 16:54 33,9 C 31,1 C 41 % 0 lf 1013,0 hPa 0,0 l/m 2 min 0 min 583 W/m 23,0 km/h (4 Bft)
06.08.2015 16:56 33,9 C 31,1 C 41 % 0 lf 1012,9 hPa 0,0 l/m 2 min 0 min 569 W/m 27,2 km/h (4 Bft)
06.08.2015 16:58 33,9 C 31,1 C 41 % 0 lf 1013,0 hPa 0,0 l/m 2 min 0 min 578 W/m 27,2 km/h (4 Bft)
06.08.2015 17:00 33,9 C 30,6 C 39 % 0 lf 1013,0 hPa 0,0 l/m 2 min 0 min 572 W/m 31,4 km/h (5 Bft)
06.08.2015 17:02 33,9 C 30,6 C 39 % 0 lf 1013,0 hPa 0,0 l/m 2 min 0 min 566 W/m 29,3 km/h (5 Bft)
06.08.2015 17:04 33,8 C 30,6 C 37 % 0 lf 1013,1 hPa 0,0 l/m 2 min 0 min 563 W/m 29,3 km/h (5 Bft)
06.08.2015 17:06 33,7 C 30,6 C 37 % 0 lf 1012,9 hPa 0,0 l/m 2 min 0 min 554 W/m 23,0 km/h (4 Bft)
06.08.2015 17:08 33,7 C 30,6 C 39 % 0 lf 1013,1 hPa 0,0 l/m 2 min 0 min 552 W/m 27,2 km/h (4 Bft)
06.08.2015 17:10 33,7 C 30,6 C 39 % 0 lf 1013,0 hPa 0,0 l/m 2 min 0 min 539 W/m 29,3 km/h (5 Bft)
06.08.2015 17:12 33,7 C 30,6 C 40 % 0 lf 1013,0 hPa 0,0 l/m 2 min 0 min 538 W/m 20,9 km/h (4 Bft)
06.08.2015 17:14 33,7 C 30,6 C 39 % 0 lf 1013,1 hPa 0,0 l/m 2 min 0 min 537 W/m 27,2 km/h (4 Bft)
06.08.2015 17:16 33,7 C 30,6 C 39 % 0 lf 1013,1 hPa 0,0 l/m 2 min 0 min 537 W/m 20,9 km/h (4 Bft)
06.08.2015 17:18 33,7 C 30,6 C 38 % 0 lf 1013,1 hPa 0,0 l/m 2 min 0 min 538 W/m 27,2 km/h (4 Bft)
06.08.2015 17:20 33,7 C 30,0 C 39 % 0 lf 1013,1 hPa 0,0 l/m 2 min 0 min 490 W/m 29,3 km/h (5 Bft)
06.08.2015 17:22 33,6 C 30,0 C 38 % 0 lf 1013,0 hPa 0,0 l/m 2 min 0 min 499 W/m 23,0 km/h (4 Bft)
06.08.2015 17:24 33,6 C 30,0 C 39 % 0 lf 1013,1 hPa 0,0 l/m 2 min 0 min 516 W/m 25,1 km/h (4 Bft)
06.08.2015 17:26 33,6 C 30,0 C 38 % 0 lf 1013,1 hPa 0,0 l/m 2 min 0 min 506 W/m 18,8 km/h (3 Bft)
06.08.2015 17:28 33,5 C 30,0 C 37 % 0 lf 1013,1 hPa 0,0 l/m 2 min 0 min 523 W/m 31,4 km/h (5 Bft)
06.08.2015 17:30 33,4 C 30,0 C 38 % 0 lf 1013,2 hPa 0,0 l/m 2 min 0 min 514 W/m 25,1 km/h (4 Bft)
06.08.2015 17:32 33,3 C 30,0 C 39 % 0 lf 1013,1 hPa 0,0 l/m 2 min 0 min 505 W/m 20,9 km/h (4 Bft)
06.08.2015 17:34 33,2 C 29,4 C 39 % 0 lf 1013,1 hPa 0,0 l/m 2 min 0 min 503 W/m 27,2 km/h (4 Bft)
06.08.2015 17:36 33,2 C 29,4 C 39 % 0 lf 1013,2 hPa 0,0 l/m 2 min 0 min 498 W/m 31,4 km/h (5 Bft)
06.08.2015 17:38 33,1 C 29,4 C 38 % 0 lf 1013,3 hPa 0,0 l/m 2 min 0 min 494 W/m 25,1 km/h (4 Bft)
06.08.2015 17:40 33,1 C 29,4 C 38 % 0 lf 1013,3 hPa 0,0 l/m 2 min 0 min 475 W/m 20,9 km/h (4 Bft)
06.08.2015 17:42 33,1 C 29,4 C 38 % 0 lf 1013,3 hPa 0,0 l/m 2 min 0 min 481 W/m 29,3 km/h (5 Bft)
06.08.2015 17:44 33,0 C 29,4 C 38 % 0 lf 1013,3 hPa 0,0 l/m 2 min 0 min 473 W/m 29,3 km/h (5 Bft)
06.08.2015 17:46 32,9 C 29,4 C 39 % 0 lf 1013,2 hPa 0,0 l/m 2 min 0 min 466 W/m 25,1 km/h (4 Bft)
06.08.2015 17:48 32,8 C 28,9 C 38 % 0 lf 1013,2 hPa 0,0 l/m 2 min 0 min 440 W/m 29,3 km/h (5 Bft)
06.08.2015 17:50 32,8 C 28,9 C 39 % 0 lf 1013,2 hPa 0,0 l/m 2 min 0 min 439 W/m 25,1 km/h (4 Bft)
06.08.2015 17:52 32,7 C 28,9 C 39 % 0 lf 1013,2 hPa 0,0 l/m 2 min 0 min 461 W/m 20,9 km/h (4 Bft)
06.08.2015 17:54 32,7 C 28,9 C 39 % 0 lf 1013,2 hPa 0,0 l/m 2 min 0 min 452 W/m 14,6 km/h (3 Bft)
06.08.2015 17:56 32,6 C 28,9 C 39 % 0 lf 1013,2 hPa 0,0 l/m 2 min 0 min 426 W/m 25,1 km/h (4 Bft)
06.08.2015 17:58 32,6 C 28,9 C 39 % 0 lf 1013,2 hPa 0,0 l/m 2 min 0 min 449 W/m 25,1 km/h (4 Bft)
06.08.2015 18:00 32,4 C 28,9 C 38 % 0 lf 1013,2 hPa 0,0 l/m 2 min 0 min 426 W/m 18,8 km/h (3 Bft)
06.08.2015 18:02 32,4 C 28,9 C 38 % 0 lf 1013,2 hPa 0,0 l/m 2 min 0 min 387 W/m 18,8 km/h (3 Bft)
06.08.2015 18:05 32,4 C 28,3 C 39 % 0 lf 1013,1 hPa 0,0 l/m 2 min 0 min 369 W/m 23,0 km/h (4 Bft)
06.08.2015 18:08 32,3 C 28,3 C 39 % 0 lf 1013,0 hPa 0,0 l/m 2 min 0 min 388 W/m 23,0 km/h (4 Bft)
06.08.2015 18:10 32,3 C 28,3 C 38 % 0 lf 1013,3 hPa 0,0 l/m 2 min 0 min 409 W/m 14,6 km/h (3 Bft)
06.08.2015 18:12 32,3 C 28,3 C 38 % 0 lf 1013,1 hPa 0,0 l/m 2 min 0 min 414 W/m 23,0 km/h (4 Bft)
06.08.2015 18:14 32,2 C 28,3 C 38 % 0 lf 1013,3 hPa 0,0 l/m 2 min 0 min 400 W/m 20,9 km/h (4 Bft)
06.08.2015 18:16 32,2 C 28,9 C 38 % 0 lf 1013,2 hPa 0,0 l/m 2 min 0 min 389 W/m 16,7 km/h (3 Bft)
06.08.2015 18:18 32,2 C 28,3 C 38 % 0 lf 1013,3 hPa 0,0 l/m 2 min 0 min 401 W/m 14,6 km/h (3 Bft)
06.08.2015 18:20 32,1 C 28,3 C 38 % 0 lf 1013,3 hPa 0,0 l/m 2 min 0 min 391 W/m 16,7 km/h (3 Bft)
06.08.2015 18:22 32,1 C 28,3 C 38 % 0 lf 1013,2 hPa 0,0 l/m 2 min 0 min 378 W/m 10,5 km/h (2 Bft)
06.08.2015 18:24 32,1 C 28,3 C 39 % 0 lf 1013,2 hPa 0,0 l/m 2 min 0 min 360 W/m 14,6 km/h (3 Bft)
06.08.2015 18:26 32,1 C 28,3 C 39 % 0 lf 1013,2 hPa 0,0 l/m 2 min 0 min 309 W/m 18,8 km/h (3 Bft)
06.08.2015 18:28 32,0 C 28,3 C 38 % 0 lf 1013,4 hPa 0,0 l/m 2 min 0 min 356 W/m 14,6 km/h (3 Bft)
06.08.2015 18:30 31,9 C 28,3 C 38 % 0 lf 1013,4 hPa 0,0 l/m 2 min 0 min 362 W/m 20,9 km/h (4 Bft)
06.08.2015 18:32 31,9 C 28,3 C 37 % 0 lf 1013,4 hPa 0,0 l/m 2 min 0 min 335 W/m 16,7 km/h (3 Bft)
06.08.2015 18:34 31,9 C 28,3 C 38 % 0 lf 1013,5 hPa 0,0 l/m 2 min 0 min 295 W/m 12,6 km/h (3 Bft)
06.08.2015 18:36 31,9 C 27,8 C 38 % 0 lf 1013,4 hPa 0,0 l/m 2 min 0 min 263 W/m 20,9 km/h (4 Bft)
06.08.2015 18:38 31,8 C 27,8 C 38 % 0 lf 1013,4 hPa 0,0 l/m 2 min 0 min 306 W/m 12,6 km/h (3 Bft)
06.08.2015 18:40 31,8 C 27,8 C 38 % 0 lf 1013,4 hPa 0,0 l/m 2 min 0 min 312 W/m 20,9 km/h (4 Bft)
06.08.2015 18:42 31,7 C 27,8 C 38 % 0 lf 1013,4 hPa 0,0 l/m 2 min 0 min 328 W/m 18,8 km/h (3 Bft)
06.08.2015 18:44 31,7 C 27,8 C 37 % 0 lf 1013,4 hPa 0,0 l/m 2 min 0 min 331 W/m 25,1 km/h (4 Bft)
06.08.2015 18:46 31,6 C 27,8 C 38 % 0 lf 1013,5 hPa 0,0 l/m 2 min 0 min 327 W/m 20,9 km/h (4 Bft)
06.08.2015 18:48 31,6 C 27,8 C 38 % 0 lf 1013,4 hPa 0,0 l/m 2 min 0 min 323 W/m 23,0 km/h (4 Bft)
06.08.2015 18:50 31,5 C 27,8 C 38 % 0 lf 1013,4 hPa 0,0 l/m 2 min 0 min 320 W/m 16,7 km/h (3 Bft)
06.08.2015 18:52 31,5 C 27,8 C 39 % 0 lf 1013,3 hPa 0,0 l/m 2 min 0 min 315 W/m 16,7 km/h (3 Bft)
06.08.2015 18:54 31,4 C 27,8 C 38 % 0 lf 1013,3 hPa 0,0 l/m 2 min 0 min 311 W/m 29,3 km/h (5 Bft)
06.08.2015 18:56 31,4 C 27,8 C 39 % 0 lf 1013,4 hPa 0,0 l/m 2 min 0 min 284 W/m 23,0 km/h (4 Bft)
06.08.2015 18:58 31,4 C 27,8 C 39 % 0 lf 1013,5 hPa 0,0 l/m 2 min 0 min 217 W/m 16,7 km/h (3 Bft)
06.08.2015 19:00 31,3 C 27,8 C 39 % 0 lf 1013,5 hPa 0,0 l/m 2 min 0 min 229 W/m 16,7 km/h (3 Bft)
06.08.2015 19:02 31,3 C 27,8 C 39 % 0 lf 1013,5 hPa 0,0 l/m 2 min 0 min 250 W/m 16,7 km/h (3 Bft)
06.08.2015 19:04 31,3 C 27,8 C 39 % 0 lf 1013,4 hPa 0,0 l/m 2 min 0 min 270 W/m 18,8 km/h (3 Bft)
06.08.2015 19:06 31,3 C 27,8 C 38 % 0 lf 1013,4 hPa 0,0 l/m 2 min 0 min 268 W/m 20,9 km/h (4 Bft)
06.08.2015 19:08 31,2 C 27,8 C 38 % 0 lf 1013,4 hPa 0,0 l/m 2 min 0 min 204 W/m 20,9 km/h (4 Bft)
06.08.2015 19:10 31,2 C 27,8 C 38 % 0 lf 1013,4 hPa 0,0 l/m 2 min 0 min 206 W/m 10,5 km/h (2 Bft)
06.08.2015 19:12 31,1 C 27,8 C 38 % 0 lf 1013,4 hPa 0,0 l/m 2 min 0 min 202 W/m 18,8 km/h (3 Bft)
06.08.2015 19:14 31,1 C 27,2 C 38 % 0 lf 1013,4 hPa 0,0 l/m 2 min 0 min 195 W/m 10,5 km/h (2 Bft)
06.08.2015 19:16 31,0 C 27,2 C 38 % 0 lf 1013,3 hPa 0,0 l/m 2 min 0 min 194 W/m 10,5 km/h (2 Bft)
06.08.2015 19:18 31,0 C 27,2 C 39 % 0 lf 1013,4 hPa 0,0 l/m 2 min 0 min 193 W/m 16,7 km/h (3 Bft)
06.08.2015 19:20 30,9 C 27,2 C 38 % 0 lf 1013,4 hPa 0,0 l/m 2 min 0 min 215 W/m 10,5 km/h (2 Bft)
06.08.2015 19:22 30,9 C 27,2 C 39 % 0 lf 1013,4 hPa 0,0 l/m 2 min 0 min 208 W/m 14,6 km/h (3 Bft)
06.08.2015 19:24 30,8 C 27,2 C 38 % 0 lf 1013,4 hPa 0,0 l/m 2 min 0 min 212 W/m 20,9 km/h (4 Bft)
06.08.2015 19:26 30,7 C 27,2 C 38 % 0 lf 1013,4 hPa 0,0 l/m 2 min 0 min 178 W/m 18,8 km/h (3 Bft)
06.08.2015 19:28 30,7 C 27,2 C 38 % 0 lf 1013,5 hPa 0,0 l/m 2 min 0 min 143 W/m 18,8 km/h (3 Bft)
06.08.2015 19:30 30,6 C 27,2 C 38 % 0 lf 1013,5 hPa 0,0 l/m 2 min 0 min 139 W/m 14,6 km/h (3 Bft)
06.08.2015 19:32 30,6 C 27,2 C 38 % 0 lf 1013,6 hPa 0,0 l/m 2 min 0 min 152 W/m 8,4 km/h (2 Bft)
06.08.2015 19:34 30,5 C 26,7 C 38 % 0 lf 1013,5 hPa 0,0 l/m 2 min 0 min 140 W/m 12,6 km/h (3 Bft)
06.08.2015 19:36 30,4 C 26,7 C 39 % 0 lf 1013,6 hPa 0,0 l/m 2 min 0 min 134 W/m 8,4 km/h (2 Bft)
06.08.2015 19:38 30,4 C 26,7 C 38 % 0 lf 1013,6 hPa 0,0 l/m 2 min 0 min 163 W/m 12,6 km/h (3 Bft)
06.08.2015 19:40 30,3 C 26,7 C 39 % 0 lf 1013,6 hPa 0,0 l/m 2 min 0 min 158 W/m 12,6 km/h (3 Bft)
06.08.2015 19:42 30,3 C 26,7 C 39 % 0 lf 1013,7 hPa 0,0 l/m 2 min 0 min 157 W/m 10,5 km/h (2 Bft)
06.08.2015 19:44 30,2 C 26,7 C 39 % 0 lf 1013,7 hPa 0,0 l/m 2 min 0 min 160 W/m 16,7 km/h (3 Bft)
06.08.2015 19:46 30,2 C 26,7 C 39 % 0 lf 1013,7 hPa 0,0 l/m 2 min 0 min 157 W/m 14,6 km/h (3 Bft)
06.08.2015 19:48 30,1 C 26,7 C 38 % 0 lf 1013,7 hPa 0,0 l/m 2 min 0 min 144 W/m 18,8 km/h (3 Bft)
06.08.2015 19:50 30,1 C 26,7 C 38 % 0 lf 1013,7 hPa 0,0 l/m 2 min 0 min 138 W/m 12,6 km/h (3 Bft)
06.08.2015 19:52 30,1 C 26,7 C 38 % 0 lf 1013,7 hPa 0,0 l/m 2 min 0 min 130 W/m 12,6 km/h (3 Bft)
06.08.2015 19:54 30,0 C 26,1 C 40 % 0 lf 1013,7 hPa 0,0 l/m 2 min 0 min 117 W/m 14,6 km/h (3 Bft)
06.08.2015 19:56 29,9 C 26,7 C 38 % 0 lf 1013,7 hPa 0,0 l/m 2 min 0 min 124 W/m 12,6 km/h (3 Bft)
06.08.2015 19:58 29,9 C 26,7 C 39 % 0 lf 1013,8 hPa 0,0 l/m 2 min 0 min 134 W/m 8,4 km/h (2 Bft)
06.08.2015 20:00 29,9 C 26,7 C 39 % 0 lf 1013,8 hPa 0,0 l/m 2 min 0 min 133 W/m 14,6 km/h (3 Bft)
06.08.2015 20:02 29,8 C 26,7 C 38 % 0 lf 1013,8 hPa 0,0 l/m 2 min 0 min 123 W/m 8,4 km/h (2 Bft)
06.08.2015 20:04 29,8 C 26,7 C 40 % 0 lf 1013,7 hPa 0,0 l/m 2 min 0 min 117 W/m 14,6 km/h (3 Bft)
06.08.2015 20:06 29,8 C 27,2 C 38 % 0 lf 1013,7 hPa 0,0 l/m 2 min 0 min 113 W/m 12,6 km/h (3 Bft)
06.08.2015 20:08 29,8 C 27,2 C 40 % 0 lf 1013,8 hPa 0,0 l/m 2 min 0 min 113 W/m 12,6 km/h (3 Bft)
06.08.2015 20:10 29,8 C 26,7 C 44 % 0 lf 1013,9 hPa 0,0 l/m 2 min 0 min 102 W/m 14,6 km/h (3 Bft)
06.08.2015 20:12 29,8 C 26,7 C 48 % 0 lf 1013,9 hPa 0,0 l/m 2 min 0 min 91 W/m 16,7 km/h (3 Bft)
06.08.2015 20:14 29,8 C 26,7 C 50 % 0 lf 1013,9 hPa 0,0 l/m 2 min 0 min 86 W/m 18,8 km/h (3 Bft)
06.08.2015 20:16 29,7 C 26,1 C 53 % 0 lf 1013,9 hPa 0,0 l/m 2 min 0 min 76 W/m 18,8 km/h (3 Bft)
06.08.2015 20:18 29,5 C 26,1 C 54 % 0 lf 1013,9 hPa 0,0 l/m 2 min 0 min 65 W/m 18,8 km/h (3 Bft)
06.08.2015 20:20 29,3 C 25,6 C 55 % 0 lf 1013,9 hPa 0,0 l/m 2 min 0 min 58 W/m 23,0 km/h (4 Bft)
06.08.2015 20:22 29,2 C 25,6 C 55 % 0 lf 1014,0 hPa 0,0 l/m 0 min 0 min 52 W/m 14,6 km/h (3 Bft)
06.08.2015 20:24 29,0 C 25,6 C 56 % 0 lf 1014,0 hPa 0,0 l/m 0 min 0 min 51 W/m 16,7 km/h (3 Bft)
06.08.2015 20:26 28,8 C 25,6 C 56 % 0 lf 1013,9 hPa 0,0 l/m 0 min 0 min 47 W/m 16,7 km/h (3 Bft)
06.08.2015 20:28 28,7 C 25,6 C 56 % 0 lf 1013,9 hPa 0,0 l/m 0 min 0 min 46 W/m 10,5 km/h (2 Bft)
06.08.2015 20:30 28,6 C 25,0 C 57 % 0 lf 1013,9 hPa 0,0 l/m 0 min 0 min 43 W/m 14,6 km/h (3 Bft)
06.08.2015 20:32 28,4 C 25,0 C 57 % 0 lf 1013,9 hPa 0,0 l/m 0 min 0 min 42 W/m 20,9 km/h (4 Bft)
06.08.2015 20:34 28,3 C 25,0 C 58 % 0 lf 1014,0 hPa 0,0 l/m 2 min 0 min 41 W/m 18,8 km/h (3 Bft)
06.08.2015 20:36 28,2 C 25,0 C 58 % 0 lf 1013,9 hPa 0,0 l/m 2 min 0 min 40 W/m 16,7 km/h (3 Bft)
06.08.2015 20:38 28,1 C 24,4 C 58 % 0 lf 1013,9 hPa 0,0 l/m 2 min 0 min 39 W/m 10,5 km/h (2 Bft)
06.08.2015 20:40 27,9 C 24,4 C 59 % 0 lf 1013,9 hPa 0,0 l/m 2 min 0 min 37 W/m 12,6 km/h (3 Bft)
06.08.2015 20:42 27,8 C 24,4 C 59 % 0 lf 1013,9 hPa 0,0 l/m 2 min 0 min 32 W/m 12,6 km/h (3 Bft)
06.08.2015 20:44 27,8 C 24,4 C 59 % 0 lf 1013,9 hPa 0,0 l/m 2 min 0 min 29 W/m 8,4 km/h (2 Bft)
06.08.2015 20:46 27,7 C 23,9 C 59 % 0 lf 1013,9 hPa 0,0 l/m 2 min 0 min 26 W/m 14,6 km/h (3 Bft)
06.08.2015 20:48 27,6 C 23,9 C 59 % 0 lf 1014,0 hPa 0,0 l/m 2 min 0 min 25 W/m 12,6 km/h (3 Bft)
06.08.2015 20:50 27,5 C 23,9 C 59 % 0 lf 1014,0 hPa 0,0 l/m 2 min 0 min 22 W/m 10,5 km/h (2 Bft)
06.08.2015 20:52 27,4 C 23,9 C 60 % 0 lf 1014,0 hPa 0,0 l/m 2 min 0 min 21 W/m 12,6 km/h (3 Bft)
06.08.2015 20:54 27,3 C 23,9 C 60 % 0 lf 1014,0 hPa 0,0 l/m 2 min 0 min 19 W/m 8,4 km/h (2 Bft)
06.08.2015 20:56 27,2 C 23,9 C 60 % 0 lf 1014,0 hPa 0,0 l/m 0 min 0 min 17 W/m 6,3 km/h (2 Bft)
06.08.2015 20:58 27,1 C 23,9 C 60 % 0 lf 1014,0 hPa 0,0 l/m 0 min 0 min 15 W/m 8,4 km/h (2 Bft)
06.08.2015 21:00 27,0 C 23,3 C 60 % 0 lf 1014,0 hPa 0,0 l/m 0 min 0 min 14 W/m 8,4 km/h (2 Bft)
06.08.2015 21:04 26,8 C 23,3 C 61 % 0 lf 1014,0 hPa 0,0 l/m 0 min 0 min 12 W/m 10,5 km/h (2 Bft)
06.08.2015 21:06 26,7 C 23,3 C 61 % 0 lf 1014,1 hPa 0,0 l/m 0 min 0 min 11 W/m 6,3 km/h (2 Bft)
06.08.2015 21:08 26,7 C 23,3 C 62 % 0 lf 1014,1 hPa 0,0 l/m 0 min 0 min 10 W/m 12,6 km/h (3 Bft)
06.08.2015 21:10 26,6 C 23,3 C 62 % 0 lf 1014,1 hPa 0,0 l/m 0 min 0 min 9 W/m 6,3 km/h (2 Bft)
06.08.2015 21:12 26,5 C 23,3 C 62 % 0 lf 1014,0 hPa 0,0 l/m 0 min 0 min 9 W/m 10,5 km/h (2 Bft)
06.08.2015 21:14 26,4 C 23,3 C 63 % 0 lf 1014,0 hPa 0,0 l/m 0 min 0 min 6 W/m 6,3 km/h (2 Bft)
06.08.2015 21:16 26,3 C 23,3 C 63 % 0 lf 1014,1 hPa 0,0 l/m 0 min 0 min 5 W/m 10,5 km/h (2 Bft)
06.08.2015 21:18 26,2 C 23,3 C 63 % 0 lf 1014,1 hPa 0,0 l/m 0 min 0 min 5 W/m 6,3 km/h (2 Bft)
06.08.2015 21:20 26,2 C 23,3 C 64 % 0 lf 1014,1 hPa 0,0 l/m 0 min 0 min 3 W/m 8,4 km/h (2 Bft)
06.08.2015 21:22 26,1 C 23,3 C 64 % 0 lf 1014,1 hPa 0,0 l/m 0 min 0 min 0 W/m 6,3 km/h (2 Bft)
06.08.2015 21:24 26,0 C 22,8 C 64 % 0 lf 1014,1 hPa 0,0 l/m 0 min 0 min 0 W/m 12,6 km/h (3 Bft)
06.08.2015 21:26 25,9 C 22,8 C 65 % 0 lf 1014,1 hPa 0,0 l/m 0 min 0 min 0 W/m 10,5 km/h (2 Bft)
06.08.2015 21:28 25,8 C 22,8 C 65 % 0 lf 1014,2 hPa 0,0 l/m 0 min 0 min 0 W/m 10,5 km/h (2 Bft)
06.08.2015 21:30 25,7 C 22,8 C 65 % 0 lf 1014,2 hPa 0,0 l/m 0 min 0 min 0 W/m 10,5 km/h (2 Bft)
06.08.2015 21:32 25,7 C 22,8 C 65 % 0 lf 1014,2 hPa 0,0 l/m 0 min 0 min 0 W/m 10,5 km/h (2 Bft)
06.08.2015 21:34 25,6 C 22,8 C 66 % 0 lf 1014,2 hPa 0,0 l/m 0 min 0 min 0 W/m 10,5 km/h (2 Bft)
06.08.2015 21:36 25,6 C 22,8 C 66 % 0 lf 1014,2 hPa 0,0 l/m 0 min 0 min 0 W/m 8,4 km/h (2 Bft)
06.08.2015 21:38 25,4 C 22,2 C 66 % 0 lf 1014,3 hPa 0,0 l/m 0 min 0 min 0 W/m 12,6 km/h (3 Bft)
06.08.2015 21:40 25,4 C 22,2 C 66 % 0 lf 1014,3 hPa 0,0 l/m 0 min 0 min 0 W/m 10,5 km/h (2 Bft)
06.08.2015 21:42 25,3 C 22,2 C 67 % 0 lf 1014,2 hPa 0,0 l/m 0 min 0 min 0 W/m 8,4 km/h (2 Bft)
06.08.2015 21:44 25,2 C 22,2 C 67 % 0 lf 1014,3 hPa 0,0 l/m 0 min 0 min 0 W/m 10,5 km/h (2 Bft)
06.08.2015 21:46 25,1 C 22,2 C 67 % 0 lf 1014,2 hPa 0,0 l/m 0 min 0 min 0 W/m 8,4 km/h (2 Bft)
06.08.2015 21:48 25,1 C 22,2 C 68 % 0 lf 1014,3 hPa 0,0 l/m 0 min 0 min 0 W/m 10,5 km/h (2 Bft)
06.08.2015 21:50 25,0 C 22,2 C 68 % 0 lf 1014,3 hPa 0,0 l/m 0 min 0 min 0 W/m 10,5 km/h (2 Bft)
06.08.2015 21:52 24,9 C 22,2 C 68 % 0 lf 1014,4 hPa 0,0 l/m 0 min 0 min 0 W/m 10,5 km/h (2 Bft)
06.08.2015 21:54 24,9 C 21,7 C 68 % 0 lf 1014,5 hPa 0,0 l/m 0 min 0 min 0 W/m 6,3 km/h (2 Bft)
06.08.2015 21:56 24,8 C 21,7 C 68 % 0 lf 1014,6 hPa 0,0 l/m 0 min 0 min 0 W/m 6,3 km/h (2 Bft)
06.08.2015 21:58 24,7 C 21,7 C 68 % 0 lf 1014,7 hPa 0,0 l/m 0 min 0 min 0 W/m 6,3 km/h (2 Bft)
06.08.2015 22:00 24,7 C 21,7 C 69 % 0 lf 1014,8 hPa 0,0 l/m 0 min 0 min 0 W/m 4,2 km/h (1 Bft)
06.08.2015 22:02 24,6 C 21,7 C 69 % 0 lf 1014,8 hPa 0,0 l/m 0 min 0 min 0 W/m 6,3 km/h (2 Bft)
06.08.2015 22:04 24,6 C 21,7 C 69 % 0 lf 1014,8 hPa 0,0 l/m 0 min 0 min 0 W/m 6,3 km/h (2 Bft)
06.08.2015 22:06 24,5 C 21,7 C 69 % 0 lf 1014,8 hPa 0,0 l/m 0 min 0 min 0 W/m 6,3 km/h (2 Bft)
06.08.2015 22:08 24,4 C 21,7 C 70 % 0 lf 1014,7 hPa 0,0 l/m 0 min 0 min 0 W/m 4,2 km/h (1 Bft)
06.08.2015 22:10 24,4 C 21,7 C 70 % 0 lf 1014,8 hPa 0,0 l/m 0 min 0 min 0 W/m 4,2 km/h (1 Bft)
06.08.2015 22:12 24,4 C 21,7 C 70 % 0 lf 1014,8 hPa 0,0 l/m 0 min 0 min 0 W/m 4,2 km/h (1 Bft)
06.08.2015 22:14 24,3 C 21,7 C 70 % 0 lf 1014,8 hPa 0,0 l/m 0 min 0 min 0 W/m 4,2 km/h (1 Bft)
06.08.2015 22:16 24,3 C 21,7 C 70 % 0 lf 1014,9 hPa 0,0 l/m 0 min 0 min 0 W/m 4,2 km/h (1 Bft)
06.08.2015 22:18 24,2 C 21,1 C 70 % 0 lf 1014,8 hPa 0,0 l/m 0 min 0 min 0 W/m 2,1 km/h (1 Bft)
06.08.2015 22:20 24,2 C 21,1 C 70 % 0 lf 1014,9 hPa 0,0 l/m 0 min 0 min 0 W/m 2,1 km/h (1 Bft)
06.08.2015 22:22 24,1 C 21,1 C 70 % 0 lf 1014,9 hPa 0,0 l/m 0 min 0 min 0 W/m 4,2 km/h (1 Bft)
06.08.2015 22:24 24,1 C 20,6 C 71 % 0 lf 1014,9 hPa 0,0 l/m 0 min 0 min 0 W/m 4,2 km/h (1 Bft)
06.08.2015 22:26 24,1 C 20,6 C 71 % 0 lf 1014,9 hPa 0,0 l/m 0 min 0 min 0 W/m 4,2 km/h (1 Bft)
06.08.2015 22:28 24,0 C 20,6 C 71 % 0 lf 1014,9 hPa 0,0 l/m 0 min 0 min 0 W/m 4,2 km/h (1 Bft)
06.08.2015 22:30 23,9 C 20,6 C 71 % 0 lf 1014,9 hPa 0,0 l/m 0 min 0 min 0 W/m 4,2 km/h (1 Bft)
06.08.2015 22:32 23,9 C 20,0 C 71 % 0 lf 1015,0 hPa 0,0 l/m 0 min 0 min 0 W/m 2,1 km/h (1 Bft)
06.08.2015 22:34 23,8 C 20,0 C 72 % 0 lf 1015,0 hPa 0,0 l/m 0 min 0 min 0 W/m 4,2 km/h (1 Bft)
06.08.2015 22:36 23,8 C 20,0 C 72 % 0 lf 1015,0 hPa 0,0 l/m 0 min 0 min 0 W/m 4,2 km/h (1 Bft)
06.08.2015 22:38 23,7 C 20,0 C 72 % 0 lf 1015,0 hPa 0,0 l/m 0 min 0 min 0 W/m 4,2 km/h (1 Bft)
06.08.2015 22:40 23,7 C 20,0 C 72 % 0 lf 1015,0 hPa 0,0 l/m 0 min 0 min 0 W/m 6,3 km/h (2 Bft)
06.08.2015 22:42 23,6 C 20,0 C 72 % 0 lf 1015,0 hPa 0,0 l/m 0 min 0 min 0 W/m 6,3 km/h (2 Bft)
06.08.2015 22:44 23,6 C 20,0 C 72 % 0 lf 1015,0 hPa 0,0 l/m 0 min 0 min 0 W/m 4,2 km/h (1 Bft)
06.08.2015 22:46 23,5 C 20,0 C 72 % 0 lf 1015,0 hPa 0,0 l/m 0 min 0 min 0 W/m 4,2 km/h (1 Bft)
06.08.2015 22:48 23,5 C 20,0 C 72 % 0 lf 1015,0 hPa 0,0 l/m 0 min 0 min 0 W/m 2,1 km/h (1 Bft)
06.08.2015 22:50 23,4 C 20,0 C 73 % 0 lf 1015,0 hPa 0,0 l/m 0 min 0 min 0 W/m 4,2 km/h (1 Bft)
06.08.2015 22:52 23,3 C 19,4 C 73 % 0 lf 1015,0 hPa 0,0 l/m 0 min 0 min 0 W/m 4,2 km/h (1 Bft)
06.08.2015 22:54 23,3 C 19,4 C 73 % 0 lf 1015,0 hPa 0,0 l/m 0 min 0 min 0 W/m 4,2 km/h (1 Bft)
06.08.2015 22:56 23,3 C 19,4 C 73 % 0 lf 1015,0 hPa 0,0 l/m 0 min 0 min 0 W/m 6,3 km/h (2 Bft)
06.08.2015 22:58 23,2 C 19,4 C 73 % 0 lf 1015,0 hPa 0,0 l/m 0 min 0 min 0 W/m 4,2 km/h (1 Bft)
06.08.2015 23:00 23,2 C 19,4 C 74 % 0 lf 1015,0 hPa 0,0 l/m 0 min 0 min 0 W/m 2,1 km/h (1 Bft)
06.08.2015 23:02 23,1 C 19,4 C 74 % 0 lf 1015,0 hPa 0,0 l/m 0 min 0 min 0 W/m 4,2 km/h (1 Bft)
06.08.2015 23:04 23,1 C 19,4 C 74 % 0 lf 1015,0 hPa 0,0 l/m 0 min 0 min 0 W/m 4,2 km/h (1 Bft)
06.08.2015 23:06 23,0 C 19,4 C 74 % 0 lf 1015,0 hPa 0,0 l/m 0 min 0 min 0 W/m 4,2 km/h (1 Bft)
06.08.2015 23:08 22,9 C 19,4 C 74 % 0 lf 1014,9 hPa 0,0 l/m 0 min 0 min 0 W/m 6,3 km/h (2 Bft)
06.08.2015 23:10 22,9 C 20,0 C 75 % 0 lf 1014,9 hPa 0,0 l/m 0 min 0 min 0 W/m 4,2 km/h (1 Bft)
06.08.2015 23:12 22,9 C 20,0 C 75 % 0 lf 1014,9 hPa 0,0 l/m 0 min 0 min 0 W/m 4,2 km/h (1 Bft)
06.08.2015 23:14 22,8 C 20,0 C 75 % 0 lf 1015,0 hPa 0,0 l/m 0 min 0 min 0 W/m 4,2 km/h (1 Bft)
06.08.2015 23:16 22,8 C 20,0 C 75 % 0 lf 1015,0 hPa 0,0 l/m 0 min 0 min 0 W/m 6,3 km/h (2 Bft)
06.08.2015 23:18 22,8 C 20,0 C 75 % 0 lf 1015,0 hPa 0,0 l/m 0 min 0 min 0 W/m 4,2 km/h (1 Bft)
06.08.2015 23:20 22,7 C 20,0 C 75 % 0 lf 1015,1 hPa 0,0 l/m 0 min 0 min 0 W/m 4,2 km/h (1 Bft)
06.08.2015 23:22 22,7 C 20,0 C 75 % 0 lf 1015,1 hPa 0,0 l/m 0 min 0 min 0 W/m 8,4 km/h (2 Bft)
06.08.2015 23:24 22,7 C 20,0 C 75 % 0 lf 1015,1 hPa 0,0 l/m 0 min 0 min 0 W/m 4,2 km/h (1 Bft)
06.08.2015 23:26 22,7 C 20,0 C 75 % 0 lf 1015,1 hPa 0,0 l/m 0 min 0 min 0 W/m 4,2 km/h (1 Bft)
06.08.2015 23:28 22,6 C 20,0 C 75 % 0 lf 1015,1 hPa 0,0 l/m 0 min 0 min 0 W/m 4,2 km/h (1 Bft)
06.08.2015 23:30 22,6 C 20,0 C 75 % 0 lf 1015,1 hPa 0,0 l/m 0 min 0 min 0 W/m 2,1 km/h (1 Bft)
06.08.2015 23:32 22,6 C 20,0 C 75 % 0 lf 1015,0 hPa 0,0 l/m 0 min 0 min 0 W/m 2,1 km/h (1 Bft)
06.08.2015 23:34 22,6 C 19,4 C 75 % 0 lf 1015,1 hPa 0,0 l/m 0 min 0 min 0 W/m 2,1 km/h (1 Bft)
06.08.2015 23:36 22,5 C 19,4 C 75 % 0 lf 1015,1 hPa 0,0 l/m 0 min 0 min 0 W/m 4,2 km/h (1 Bft)
06.08.2015 23:38 22,5 C 19,4 C 76 % 0 lf 1015,1 hPa 0,0 l/m 0 min 0 min 0 W/m 4,2 km/h (1 Bft)
06.08.2015 23:40 22,4 C 20,0 C 76 % 0 lf 1015,1 hPa 0,0 l/m 0 min 0 min 0 W/m 6,3 km/h (2 Bft)
06.08.2015 23:42 22,4 C 20,0 C 76 % 0 lf 1015,1 hPa 0,0 l/m 0 min 0 min 0 W/m 4,2 km/h (1 Bft)
06.08.2015 23:44 22,4 C 20,0 C 76 % 0 lf 1015,1 hPa 0,0 l/m 0 min 0 min 0 W/m 6,3 km/h (2 Bft)
06.08.2015 23:46 22,4 C 20,6 C 77 % 0 lf 1015,1 hPa 0,0 l/m 0 min 0 min 0 W/m 4,2 km/h (1 Bft)
06.08.2015 23:48 22,3 C 20,0 C 77 % 0 lf 1015,1 hPa 0,0 l/m 0 min 0 min 0 W/m 6,3 km/h (2 Bft)
06.08.2015 23:50 22,3 C 20,0 C 77 % 0 lf 1015,1 hPa 0,0 l/m 0 min 0 min 0 W/m 8,4 km/h (2 Bft)
06.08.2015 23:52 22,3 C 20,0 C 77 % 0 lf 1015,1 hPa 0,0 l/m 0 min 0 min 0 W/m 6,3 km/h (2 Bft)
06.08.2015 23:54 22,3 C 20,0 C 77 % 0 lf 1015,1 hPa 0,0 l/m 0 min 0 min 0 W/m 6,3 km/h (2 Bft)
06.08.2015 23:56 22,2 C 20,0 C 77 % 0 lf 1015,1 hPa 0,0 l/m 0 min 0 min 0 W/m 4,2 km/h (1 Bft)
06.08.2015 23:58 22,2 C 20,6 C 77 % 0 lf 1015,1 hPa 0,0 l/m 0 min 0 min 0 W/m 6,3 km/h (2 Bft)
_ Min-Zeit 06:08 05:08 17:04 00:00 13:28 - - - - 22:18
Minimum _ 16,8 C 15,0 C 37 % 0 lf 1012,2 hPa - - - - 2,1 km/h (1 Bft)
_ Max-Zeit 14:34 15:54 06:52 00:00 23:20 00:00 06:38 00:00 14:14 14:52
Maximum _ 35,1 C 36,7 C 85 % 0 lf 1015,1 hPa 0,0 l/m 2 min 0 min 850 W/m 41,8 km/h
W-SW (6 Bft)
Durchschnitt _ 25,5 C 23,4 C 63 % 0 lf 1013,0 hPa #0,0 l/m #13:42 h #0 min. 447 W/m 14,1 km/h (3 Bft)
© 2015 W. Hausmann